<?xml version="1.0" encoding="UTF-8" standalone="no" ?>
<gpx xmlns="http://www.topografix.com/GPX/1/1" xmlns:xsi="http://www.w3.org/2001/XMLSchema-instance" xsi:schemaLocation="http://www.topografix.com/GPX/1/1 http://www.topografix.com/GPX/1/1/gpx.xsd" version="1.1" creator="VisuGPX - https://www.visugpx.com">
  <metadata>
    <name>skirando charbonniere</name>
    <desc><![CDATA[vers col charbonniere et descente en NE. beaucoup de neige, en cours de transfo en sud (croute sur poudre),bonne poudre en nord là ou le vent n'a pas trop soufflé.un monde fou au début, plus calme après une heure. temps magnifique (surtout par rapport au passage de janvier 2015). avec les amis.]]></desc>
  </metadata>
  <trk>
    <name><![CDATA[2016-02-06 08:33]]></name>
    <trkseg>
      <trkpt lat="45.59206" lon="6.67081">
        <ele>1415.95</ele>
        <time>2016-02-06T07:37:46.000Z</time>
      </trkpt>
      <trkpt lat="45.59222" lon="6.67068">
        <ele>1428.57</ele>
        <time>2016-02-06T07:40:00.000Z</time>
      </trkpt>
      <trkpt lat="45.59242" lon="6.67077">
        <ele>1418.22</ele>
        <time>2016-02-06T07:40:16.000Z</time>
      </trkpt>
      <trkpt lat="45.59262" lon="6.67077">
        <ele>1418.03</ele>
        <time>2016-02-06T07:40:30.000Z</time>
      </trkpt>
      <trkpt lat="45.59282" lon="6.67075">
        <ele>1417.03</ele>
        <time>2016-02-06T07:40:56.000Z</time>
      </trkpt>
      <trkpt lat="45.59301" lon="6.67083">
        <ele>1407.36</ele>
        <time>2016-02-06T07:41:12.000Z</time>
      </trkpt>
      <trkpt lat="45.59321" lon="6.67084">
        <ele>1406.24</ele>
        <time>2016-02-06T07:41:24.000Z</time>
      </trkpt>
      <trkpt lat="45.59339" lon="6.6709">
        <ele>1406.19</ele>
        <time>2016-02-06T07:41:34.000Z</time>
      </trkpt>
      <trkpt lat="45.59339" lon="6.6709">
        <ele>1406.19</ele>
        <time>2016-02-06T07:41:34.000Z</time>
      </trkpt>
      <trkpt lat="45.59353" lon="6.67092">
        <ele>1406.03</ele>
        <time>2016-02-06T07:41:46.000Z</time>
      </trkpt>
      <trkpt lat="45.59372" lon="6.67088">
        <ele>1409.75</ele>
        <time>2016-02-06T07:42:00.000Z</time>
      </trkpt>
      <trkpt lat="45.59389" lon="6.67079">
        <ele>1412.06</ele>
        <time>2016-02-06T07:42:14.000Z</time>
      </trkpt>
      <trkpt lat="45.59407" lon="6.67063">
        <ele>1414.14</ele>
        <time>2016-02-06T07:42:28.000Z</time>
      </trkpt>
      <trkpt lat="45.59423" lon="6.67047">
        <ele>1420.79</ele>
        <time>2016-02-06T07:42:46.000Z</time>
      </trkpt>
      <trkpt lat="45.59441" lon="6.6704">
        <ele>1420.22</ele>
        <time>2016-02-06T07:43:02.000Z</time>
      </trkpt>
      <trkpt lat="45.5946" lon="6.67039">
        <ele>1419.19</ele>
        <time>2016-02-06T07:43:20.000Z</time>
      </trkpt>
      <trkpt lat="45.59477" lon="6.67029">
        <ele>1419.23</ele>
        <time>2016-02-06T07:43:38.000Z</time>
      </trkpt>
      <trkpt lat="45.59491" lon="6.67009">
        <ele>1424.86</ele>
        <time>2016-02-06T07:43:56.000Z</time>
      </trkpt>
      <trkpt lat="45.59509" lon="6.66999">
        <ele>1422.89</ele>
        <time>2016-02-06T07:44:24.000Z</time>
      </trkpt>
      <trkpt lat="45.59509" lon="6.66999">
        <ele>1422.89</ele>
        <time>2016-02-06T07:44:24.000Z</time>
      </trkpt>
      <trkpt lat="45.59522" lon="6.6699">
        <ele>1425.06</ele>
        <time>2016-02-06T07:45:46.000Z</time>
      </trkpt>
      <trkpt lat="45.59539" lon="6.66999">
        <ele>1426.69</ele>
        <time>2016-02-06T07:49:32.000Z</time>
      </trkpt>
      <trkpt lat="45.59539" lon="6.66999">
        <ele>1426.69</ele>
        <time>2016-02-06T07:49:32.000Z</time>
      </trkpt>
      <trkpt lat="45.59539" lon="6.66999">
        <ele>1427.99</ele>
        <time>2016-02-06T07:49:46.000Z</time>
      </trkpt>
      <trkpt lat="45.59557" lon="6.67005">
        <ele>1424.11</ele>
        <time>2016-02-06T07:51:51.000Z</time>
      </trkpt>
      <trkpt lat="45.59577" lon="6.67001">
        <ele>1427.34</ele>
        <time>2016-02-06T07:52:57.000Z</time>
      </trkpt>
      <trkpt lat="45.59595" lon="6.67003">
        <ele>1425.78</ele>
        <time>2016-02-06T07:53:17.000Z</time>
      </trkpt>
      <trkpt lat="45.59614" lon="6.67011">
        <ele>1431.34</ele>
        <time>2016-02-06T07:53:37.000Z</time>
      </trkpt>
      <trkpt lat="45.59614" lon="6.67011">
        <ele>1431.34</ele>
        <time>2016-02-06T07:53:37.000Z</time>
      </trkpt>
      <trkpt lat="45.59623" lon="6.67011">
        <ele>1435.33</ele>
        <time>2016-02-06T07:53:45.000Z</time>
      </trkpt>
      <trkpt lat="45.59641" lon="6.67004">
        <ele>1439.74</ele>
        <time>2016-02-06T07:54:05.000Z</time>
      </trkpt>
      <trkpt lat="45.59642" lon="6.66976">
        <ele>1439.02</ele>
        <time>2016-02-06T07:54:25.000Z</time>
      </trkpt>
      <trkpt lat="45.59661" lon="6.66974">
        <ele>1438.61</ele>
        <time>2016-02-06T07:54:55.000Z</time>
      </trkpt>
      <trkpt lat="45.59673" lon="6.66954">
        <ele>1444.29</ele>
        <time>2016-02-06T07:55:25.000Z</time>
      </trkpt>
      <trkpt lat="45.59689" lon="6.66941">
        <ele>1454.25</ele>
        <time>2016-02-06T07:56:01.000Z</time>
      </trkpt>
      <trkpt lat="45.59705" lon="6.66927">
        <ele>1461.68</ele>
        <time>2016-02-06T07:56:45.000Z</time>
      </trkpt>
      <trkpt lat="45.59722" lon="6.66942">
        <ele>1465.11</ele>
        <time>2016-02-06T07:57:09.000Z</time>
      </trkpt>
      <trkpt lat="45.59737" lon="6.66956">
        <ele>1467.69</ele>
        <time>2016-02-06T07:57:39.000Z</time>
      </trkpt>
      <trkpt lat="45.59737" lon="6.66956">
        <ele>1467.69</ele>
        <time>2016-02-06T07:57:39.000Z</time>
      </trkpt>
      <trkpt lat="45.5974" lon="6.66956">
        <ele>1469.71</ele>
        <time>2016-02-06T07:57:45.000Z</time>
      </trkpt>
      <trkpt lat="45.59758" lon="6.66964">
        <ele>1469.89</ele>
        <time>2016-02-06T07:58:17.000Z</time>
      </trkpt>
      <trkpt lat="45.59778" lon="6.66966">
        <ele>1473.46</ele>
        <time>2016-02-06T07:58:43.000Z</time>
      </trkpt>
      <trkpt lat="45.59778" lon="6.66966">
        <ele>1473.46</ele>
        <time>2016-02-06T07:58:43.000Z</time>
      </trkpt>
      <trkpt lat="45.59776" lon="6.66957">
        <ele>1482</ele>
        <time>2016-02-06T08:01:45.000Z</time>
      </trkpt>
      <trkpt lat="45.59767" lon="6.66934">
        <ele>1484</ele>
        <time>2016-02-06T08:04:17.000Z</time>
      </trkpt>
      <trkpt lat="45.59771" lon="6.66909">
        <ele>1485.24</ele>
        <time>2016-02-06T08:04:49.000Z</time>
      </trkpt>
      <trkpt lat="45.59786" lon="6.66892">
        <ele>1487.14</ele>
        <time>2016-02-06T08:05:17.000Z</time>
      </trkpt>
      <trkpt lat="45.59786" lon="6.66892">
        <ele>1487.14</ele>
        <time>2016-02-06T08:05:17.000Z</time>
      </trkpt>
      <trkpt lat="45.59798" lon="6.66889">
        <ele>1490</ele>
        <time>2016-02-06T08:05:45.000Z</time>
      </trkpt>
      <trkpt lat="45.59801" lon="6.66864">
        <ele>1492.86</ele>
        <time>2016-02-06T08:06:07.000Z</time>
      </trkpt>
      <trkpt lat="45.59819" lon="6.66855">
        <ele>1496.37</ele>
        <time>2016-02-06T08:06:33.000Z</time>
      </trkpt>
      <trkpt lat="45.59835" lon="6.66841">
        <ele>1503.23</ele>
        <time>2016-02-06T08:06:59.000Z</time>
      </trkpt>
      <trkpt lat="45.5983" lon="6.66816">
        <ele>1509.35</ele>
        <time>2016-02-06T08:07:31.000Z</time>
      </trkpt>
      <trkpt lat="45.59832" lon="6.66788">
        <ele>1512.13</ele>
        <time>2016-02-06T08:07:57.000Z</time>
      </trkpt>
      <trkpt lat="45.59842" lon="6.66766">
        <ele>1515.25</ele>
        <time>2016-02-06T08:08:31.000Z</time>
      </trkpt>
      <trkpt lat="45.5986" lon="6.66763">
        <ele>1521.33</ele>
        <time>2016-02-06T08:09:11.000Z</time>
      </trkpt>
      <trkpt lat="45.59877" lon="6.66773">
        <ele>1527.15</ele>
        <time>2016-02-06T08:09:37.000Z</time>
      </trkpt>
      <trkpt lat="45.59877" lon="6.66773">
        <ele>1527.15</ele>
        <time>2016-02-06T08:09:37.000Z</time>
      </trkpt>
      <trkpt lat="45.59882" lon="6.66774">
        <ele>1526.51</ele>
        <time>2016-02-06T08:09:45.000Z</time>
      </trkpt>
      <trkpt lat="45.59896" lon="6.66758">
        <ele>1538.67</ele>
        <time>2016-02-06T08:10:47.000Z</time>
      </trkpt>
      <trkpt lat="45.59906" lon="6.66735">
        <ele>1544.62</ele>
        <time>2016-02-06T08:11:21.000Z</time>
      </trkpt>
      <trkpt lat="45.59914" lon="6.66712">
        <ele>1550.86</ele>
        <time>2016-02-06T08:11:53.000Z</time>
      </trkpt>
      <trkpt lat="45.59927" lon="6.6673">
        <ele>1554.85</ele>
        <time>2016-02-06T08:12:21.000Z</time>
      </trkpt>
      <trkpt lat="45.59943" lon="6.66714">
        <ele>1561.97</ele>
        <time>2016-02-06T08:13:03.000Z</time>
      </trkpt>
      <trkpt lat="45.59947" lon="6.66688">
        <ele>1564.96</ele>
        <time>2016-02-06T08:13:31.000Z</time>
      </trkpt>
      <trkpt lat="45.59947" lon="6.66688">
        <ele>1564.96</ele>
        <time>2016-02-06T08:13:31.000Z</time>
      </trkpt>
      <trkpt lat="45.59952" lon="6.66687">
        <ele>1567</ele>
        <time>2016-02-06T08:13:45.000Z</time>
      </trkpt>
      <trkpt lat="45.5997" lon="6.66695">
        <ele>1573.96</ele>
        <time>2016-02-06T08:14:13.000Z</time>
      </trkpt>
      <trkpt lat="45.59977" lon="6.6667">
        <ele>1583.3</ele>
        <time>2016-02-06T08:14:53.000Z</time>
      </trkpt>
      <trkpt lat="45.59974" lon="6.66644">
        <ele>1590.18</ele>
        <time>2016-02-06T08:15:23.000Z</time>
      </trkpt>
      <trkpt lat="45.59974" lon="6.66644">
        <ele>1590.18</ele>
        <time>2016-02-06T08:15:23.000Z</time>
      </trkpt>
      <trkpt lat="45.59978" lon="6.66646">
        <ele>1593</ele>
        <time>2016-02-06T08:17:45.000Z</time>
      </trkpt>
      <trkpt lat="45.59978" lon="6.66646">
        <ele>1593</ele>
        <time>2016-02-06T08:17:45.000Z</time>
      </trkpt>
      <trkpt lat="45.59977" lon="6.66648">
        <ele>1592</ele>
        <time>2016-02-06T08:21:45.000Z</time>
      </trkpt>
      <trkpt lat="45.59973" lon="6.66623">
        <ele>1593.36</ele>
        <time>2016-02-06T08:22:21.000Z</time>
      </trkpt>
      <trkpt lat="45.59966" lon="6.66597">
        <ele>1601.51</ele>
        <time>2016-02-06T08:22:45.000Z</time>
      </trkpt>
      <trkpt lat="45.59958" lon="6.66572">
        <ele>1608.98</ele>
        <time>2016-02-06T08:23:13.000Z</time>
      </trkpt>
      <trkpt lat="45.59959" lon="6.66544">
        <ele>1614.99</ele>
        <time>2016-02-06T08:23:41.000Z</time>
      </trkpt>
      <trkpt lat="45.59964" lon="6.66517">
        <ele>1615.03</ele>
        <time>2016-02-06T08:24:05.000Z</time>
      </trkpt>
      <trkpt lat="45.5996" lon="6.66492">
        <ele>1620.96</ele>
        <time>2016-02-06T08:24:25.000Z</time>
      </trkpt>
      <trkpt lat="45.59961" lon="6.66465">
        <ele>1624.8</ele>
        <time>2016-02-06T08:24:53.000Z</time>
      </trkpt>
      <trkpt lat="45.59969" lon="6.66439">
        <ele>1622.76</ele>
        <time>2016-02-06T08:25:25.000Z</time>
      </trkpt>
      <trkpt lat="45.59969" lon="6.66439">
        <ele>1622.76</ele>
        <time>2016-02-06T08:25:25.000Z</time>
      </trkpt>
      <trkpt lat="45.59971" lon="6.66427">
        <ele>1625.71</ele>
        <time>2016-02-06T08:25:45.000Z</time>
      </trkpt>
      <trkpt lat="45.59975" lon="6.664">
        <ele>1637.57</ele>
        <time>2016-02-06T08:26:13.000Z</time>
      </trkpt>
      <trkpt lat="45.59983" lon="6.66375">
        <ele>1643.45</ele>
        <time>2016-02-06T08:29:19.000Z</time>
      </trkpt>
      <trkpt lat="45.59983" lon="6.66375">
        <ele>1643.45</ele>
        <time>2016-02-06T08:29:19.000Z</time>
      </trkpt>
      <trkpt lat="45.59991" lon="6.66351">
        <ele>1645.31</ele>
        <time>2016-02-06T08:29:45.000Z</time>
      </trkpt>
      <trkpt lat="45.60009" lon="6.66355">
        <ele>1654.82</ele>
        <time>2016-02-06T08:30:21.000Z</time>
      </trkpt>
      <trkpt lat="45.60023" lon="6.66371">
        <ele>1657.77</ele>
        <time>2016-02-06T08:30:49.000Z</time>
      </trkpt>
      <trkpt lat="45.60038" lon="6.66387">
        <ele>1663.31</ele>
        <time>2016-02-06T08:31:27.000Z</time>
      </trkpt>
      <trkpt lat="45.60056" lon="6.66397">
        <ele>1671.58</ele>
        <time>2016-02-06T08:32:19.000Z</time>
      </trkpt>
      <trkpt lat="45.60056" lon="6.66397">
        <ele>1671.58</ele>
        <time>2016-02-06T08:32:19.000Z</time>
      </trkpt>
      <trkpt lat="45.6007" lon="6.66401">
        <ele>1685.69</ele>
        <time>2016-02-06T08:33:45.000Z</time>
      </trkpt>
      <trkpt lat="45.6007" lon="6.66401">
        <ele>1685.69</ele>
        <time>2016-02-06T08:33:45.000Z</time>
      </trkpt>
      <trkpt lat="45.60069" lon="6.664">
        <ele>1687.38</ele>
        <time>2016-02-06T08:37:45.000Z</time>
      </trkpt>
      <trkpt lat="45.60077" lon="6.66375">
        <ele>1686.52</ele>
        <time>2016-02-06T08:40:47.000Z</time>
      </trkpt>
      <trkpt lat="45.60083" lon="6.66349">
        <ele>1685.02</ele>
        <time>2016-02-06T08:41:11.000Z</time>
      </trkpt>
      <trkpt lat="45.60087" lon="6.66322">
        <ele>1689.6</ele>
        <time>2016-02-06T08:41:33.000Z</time>
      </trkpt>
      <trkpt lat="45.60087" lon="6.66322">
        <ele>1689.6</ele>
        <time>2016-02-06T08:41:33.000Z</time>
      </trkpt>
      <trkpt lat="45.60089" lon="6.66307">
        <ele>1691.85</ele>
        <time>2016-02-06T08:41:45.000Z</time>
      </trkpt>
      <trkpt lat="45.60087" lon="6.6628">
        <ele>1697.91</ele>
        <time>2016-02-06T08:42:05.000Z</time>
      </trkpt>
      <trkpt lat="45.60093" lon="6.66254">
        <ele>1701.15</ele>
        <time>2016-02-06T08:42:27.000Z</time>
      </trkpt>
      <trkpt lat="45.60096" lon="6.66227">
        <ele>1702.61</ele>
        <time>2016-02-06T08:42:53.000Z</time>
      </trkpt>
      <trkpt lat="45.60098" lon="6.66201">
        <ele>1701.86</ele>
        <time>2016-02-06T08:43:17.000Z</time>
      </trkpt>
      <trkpt lat="45.60101" lon="6.66174">
        <ele>1706.68</ele>
        <time>2016-02-06T08:43:41.000Z</time>
      </trkpt>
      <trkpt lat="45.60102" lon="6.66148">
        <ele>1714.01</ele>
        <time>2016-02-06T08:44:03.000Z</time>
      </trkpt>
      <trkpt lat="45.60104" lon="6.66121">
        <ele>1720.21</ele>
        <time>2016-02-06T08:44:31.000Z</time>
      </trkpt>
      <trkpt lat="45.60104" lon="6.66095">
        <ele>1724.79</ele>
        <time>2016-02-06T08:44:57.000Z</time>
      </trkpt>
      <trkpt lat="45.60102" lon="6.66068">
        <ele>1726.26</ele>
        <time>2016-02-06T08:45:27.000Z</time>
      </trkpt>
      <trkpt lat="45.60102" lon="6.66068">
        <ele>1726.26</ele>
        <time>2016-02-06T08:45:27.000Z</time>
      </trkpt>
      <trkpt lat="45.60102" lon="6.66053">
        <ele>1726.7</ele>
        <time>2016-02-06T08:45:45.000Z</time>
      </trkpt>
      <trkpt lat="45.60099" lon="6.66028">
        <ele>1730.87</ele>
        <time>2016-02-06T08:46:05.000Z</time>
      </trkpt>
      <trkpt lat="45.60094" lon="6.66001">
        <ele>1734.85</ele>
        <time>2016-02-06T08:46:31.000Z</time>
      </trkpt>
      <trkpt lat="45.60083" lon="6.65981">
        <ele>1735.93</ele>
        <time>2016-02-06T08:46:51.000Z</time>
      </trkpt>
      <trkpt lat="45.60074" lon="6.65958">
        <ele>1734.28</ele>
        <time>2016-02-06T08:47:11.000Z</time>
      </trkpt>
      <trkpt lat="45.6007" lon="6.65932">
        <ele>1734.96</ele>
        <time>2016-02-06T08:47:33.000Z</time>
      </trkpt>
      <trkpt lat="45.60078" lon="6.65907">
        <ele>1741.37</ele>
        <time>2016-02-06T08:48:23.000Z</time>
      </trkpt>
      <trkpt lat="45.60078" lon="6.65907">
        <ele>1741.37</ele>
        <time>2016-02-06T08:48:23.000Z</time>
      </trkpt>
      <trkpt lat="45.60085" lon="6.65914">
        <ele>1744</ele>
        <time>2016-02-06T08:49:45.000Z</time>
      </trkpt>
      <trkpt lat="45.60085" lon="6.65914">
        <ele>1744</ele>
        <time>2016-02-06T08:49:45.000Z</time>
      </trkpt>
      <trkpt lat="45.60089" lon="6.65918">
        <ele>1741</ele>
        <time>2016-02-06T08:53:45.000Z</time>
      </trkpt>
      <trkpt lat="45.60097" lon="6.65894">
        <ele>1751.6</ele>
        <time>2016-02-06T08:55:03.000Z</time>
      </trkpt>
      <trkpt lat="45.60092" lon="6.65868">
        <ele>1754.26</ele>
        <time>2016-02-06T08:55:25.000Z</time>
      </trkpt>
      <trkpt lat="45.60094" lon="6.65841">
        <ele>1754.43</ele>
        <time>2016-02-06T08:55:49.000Z</time>
      </trkpt>
      <trkpt lat="45.60093" lon="6.65814">
        <ele>1756.96</ele>
        <time>2016-02-06T08:56:13.000Z</time>
      </trkpt>
      <trkpt lat="45.60093" lon="6.65787">
        <ele>1761.51</ele>
        <time>2016-02-06T08:56:37.000Z</time>
      </trkpt>
      <trkpt lat="45.60093" lon="6.65761">
        <ele>1765.43</ele>
        <time>2016-02-06T08:57:01.000Z</time>
      </trkpt>
      <trkpt lat="45.60093" lon="6.65761">
        <ele>1765.43</ele>
        <time>2016-02-06T08:57:01.000Z</time>
      </trkpt>
      <trkpt lat="45.60102" lon="6.65747">
        <ele>1767</ele>
        <time>2016-02-06T08:57:45.000Z</time>
      </trkpt>
      <trkpt lat="45.60116" lon="6.65763">
        <ele>1770.3</ele>
        <time>2016-02-06T09:00:03.000Z</time>
      </trkpt>
      <trkpt lat="45.60128" lon="6.65743">
        <ele>1776.95</ele>
        <time>2016-02-06T09:00:37.000Z</time>
      </trkpt>
      <trkpt lat="45.60146" lon="6.6575">
        <ele>1779.56</ele>
        <time>2016-02-06T09:01:09.000Z</time>
      </trkpt>
      <trkpt lat="45.60163" lon="6.65762">
        <ele>1784.84</ele>
        <time>2016-02-06T09:01:39.000Z</time>
      </trkpt>
      <trkpt lat="45.60163" lon="6.65762">
        <ele>1784.84</ele>
        <time>2016-02-06T09:01:39.000Z</time>
      </trkpt>
      <trkpt lat="45.60165" lon="6.65766">
        <ele>1787.11</ele>
        <time>2016-02-06T09:01:45.000Z</time>
      </trkpt>
      <trkpt lat="45.60178" lon="6.65748">
        <ele>1790.77</ele>
        <time>2016-02-06T09:02:21.000Z</time>
      </trkpt>
      <trkpt lat="45.60183" lon="6.65723">
        <ele>1796.75</ele>
        <time>2016-02-06T09:04:13.000Z</time>
      </trkpt>
      <trkpt lat="45.60189" lon="6.65698">
        <ele>1801.69</ele>
        <time>2016-02-06T09:04:43.000Z</time>
      </trkpt>
      <trkpt lat="45.60196" lon="6.65672">
        <ele>1808.18</ele>
        <time>2016-02-06T09:05:11.000Z</time>
      </trkpt>
      <trkpt lat="45.60202" lon="6.65648">
        <ele>1814.35</ele>
        <time>2016-02-06T09:05:37.000Z</time>
      </trkpt>
      <trkpt lat="45.60202" lon="6.65648">
        <ele>1814.35</ele>
        <time>2016-02-06T09:05:37.000Z</time>
      </trkpt>
      <trkpt lat="45.60205" lon="6.65641">
        <ele>1815.83</ele>
        <time>2016-02-06T09:05:45.000Z</time>
      </trkpt>
      <trkpt lat="45.60213" lon="6.65618">
        <ele>1823.11</ele>
        <time>2016-02-06T09:06:15.000Z</time>
      </trkpt>
      <trkpt lat="45.60223" lon="6.65595">
        <ele>1828.73</ele>
        <time>2016-02-06T09:06:43.000Z</time>
      </trkpt>
      <trkpt lat="45.60235" lon="6.65575">
        <ele>1835.34</ele>
        <time>2016-02-06T09:07:11.000Z</time>
      </trkpt>
      <trkpt lat="45.60249" lon="6.65558">
        <ele>1839.83</ele>
        <time>2016-02-06T09:07:39.000Z</time>
      </trkpt>
      <trkpt lat="45.60265" lon="6.65547">
        <ele>1843.98</ele>
        <time>2016-02-06T09:08:15.000Z</time>
      </trkpt>
      <trkpt lat="45.60276" lon="6.65526">
        <ele>1847.71</ele>
        <time>2016-02-06T09:08:43.000Z</time>
      </trkpt>
      <trkpt lat="45.60289" lon="6.65506">
        <ele>1849.73</ele>
        <time>2016-02-06T09:09:11.000Z</time>
      </trkpt>
      <trkpt lat="45.60302" lon="6.65487">
        <ele>1852.98</ele>
        <time>2016-02-06T09:09:39.000Z</time>
      </trkpt>
      <trkpt lat="45.60302" lon="6.65487">
        <ele>1852.98</ele>
        <time>2016-02-06T09:09:39.000Z</time>
      </trkpt>
      <trkpt lat="45.60305" lon="6.65483">
        <ele>1853.87</ele>
        <time>2016-02-06T09:09:45.000Z</time>
      </trkpt>
      <trkpt lat="45.6032" lon="6.65468">
        <ele>1859.26</ele>
        <time>2016-02-06T09:10:13.000Z</time>
      </trkpt>
      <trkpt lat="45.60337" lon="6.65477">
        <ele>1859.64</ele>
        <time>2016-02-06T09:10:53.000Z</time>
      </trkpt>
      <trkpt lat="45.60341" lon="6.65503">
        <ele>1861.52</ele>
        <time>2016-02-06T09:11:25.000Z</time>
      </trkpt>
      <trkpt lat="45.6036" lon="6.65495">
        <ele>1867.11</ele>
        <time>2016-02-06T09:11:57.000Z</time>
      </trkpt>
      <trkpt lat="45.60378" lon="6.6549">
        <ele>1875.71</ele>
        <time>2016-02-06T09:12:33.000Z</time>
      </trkpt>
      <trkpt lat="45.60396" lon="6.65488">
        <ele>1879.71</ele>
        <time>2016-02-06T09:13:07.000Z</time>
      </trkpt>
      <trkpt lat="45.60396" lon="6.65488">
        <ele>1879.71</ele>
        <time>2016-02-06T09:13:07.000Z</time>
      </trkpt>
      <trkpt lat="45.60397" lon="6.65497">
        <ele>1878.12</ele>
        <time>2016-02-06T09:13:45.000Z</time>
      </trkpt>
      <trkpt lat="45.60415" lon="6.65503">
        <ele>1882.92</ele>
        <time>2016-02-06T09:14:17.000Z</time>
      </trkpt>
      <trkpt lat="45.60432" lon="6.65493">
        <ele>1888.6</ele>
        <time>2016-02-06T09:14:47.000Z</time>
      </trkpt>
      <trkpt lat="45.6045" lon="6.65485">
        <ele>1894.76</ele>
        <time>2016-02-06T09:15:21.000Z</time>
      </trkpt>
      <trkpt lat="45.60467" lon="6.65478">
        <ele>1898.59</ele>
        <time>2016-02-06T09:15:57.000Z</time>
      </trkpt>
      <trkpt lat="45.60485" lon="6.65468">
        <ele>1902.34</ele>
        <time>2016-02-06T09:16:35.000Z</time>
      </trkpt>
      <trkpt lat="45.60485" lon="6.65468">
        <ele>1902.34</ele>
        <time>2016-02-06T09:16:35.000Z</time>
      </trkpt>
      <trkpt lat="45.60489" lon="6.65467">
        <ele>1901</ele>
        <time>2016-02-06T09:17:45.000Z</time>
      </trkpt>
      <trkpt lat="45.60489" lon="6.6544">
        <ele>1905.87</ele>
        <time>2016-02-06T09:18:37.000Z</time>
      </trkpt>
      <trkpt lat="45.60482" lon="6.65416">
        <ele>1912.58</ele>
        <time>2016-02-06T09:19:05.000Z</time>
      </trkpt>
      <trkpt lat="45.60479" lon="6.6539">
        <ele>1918.28</ele>
        <time>2016-02-06T09:19:35.000Z</time>
      </trkpt>
      <trkpt lat="45.60498" lon="6.65393">
        <ele>1924.73</ele>
        <time>2016-02-06T09:20:17.000Z</time>
      </trkpt>
      <trkpt lat="45.60487" lon="6.65372">
        <ele>1928.36</ele>
        <time>2016-02-06T09:20:49.000Z</time>
      </trkpt>
      <trkpt lat="45.60475" lon="6.65351">
        <ele>1935.61</ele>
        <time>2016-02-06T09:21:17.000Z</time>
      </trkpt>
      <trkpt lat="45.60475" lon="6.65351">
        <ele>1935.61</ele>
        <time>2016-02-06T09:21:17.000Z</time>
      </trkpt>
      <trkpt lat="45.60469" lon="6.65326">
        <ele>1935.76</ele>
        <time>2016-02-06T09:21:45.000Z</time>
      </trkpt>
      <trkpt lat="45.60482" lon="6.65307">
        <ele>1938.86</ele>
        <time>2016-02-06T09:22:15.000Z</time>
      </trkpt>
      <trkpt lat="45.60501" lon="6.65306">
        <ele>1937.03</ele>
        <time>2016-02-06T09:23:31.000Z</time>
      </trkpt>
      <trkpt lat="45.60519" lon="6.653">
        <ele>1937.69</ele>
        <time>2016-02-06T09:24:49.000Z</time>
      </trkpt>
      <trkpt lat="45.60537" lon="6.65298">
        <ele>1938.98</ele>
        <time>2016-02-06T09:25:09.000Z</time>
      </trkpt>
      <trkpt lat="45.60556" lon="6.65292">
        <ele>1940.87</ele>
        <time>2016-02-06T09:25:33.000Z</time>
      </trkpt>
      <trkpt lat="45.60556" lon="6.65292">
        <ele>1940.87</ele>
        <time>2016-02-06T09:25:33.000Z</time>
      </trkpt>
      <trkpt lat="45.60566" lon="6.65289">
        <ele>1942.69</ele>
        <time>2016-02-06T09:25:45.000Z</time>
      </trkpt>
      <trkpt lat="45.60585" lon="6.65286">
        <ele>1944.99</ele>
        <time>2016-02-06T09:26:07.000Z</time>
      </trkpt>
      <trkpt lat="45.60603" lon="6.65286">
        <ele>1947.73</ele>
        <time>2016-02-06T09:26:27.000Z</time>
      </trkpt>
      <trkpt lat="45.60622" lon="6.65285">
        <ele>1950.94</ele>
        <time>2016-02-06T09:26:53.000Z</time>
      </trkpt>
      <trkpt lat="45.60641" lon="6.65283">
        <ele>1949.21</ele>
        <time>2016-02-06T09:27:21.000Z</time>
      </trkpt>
      <trkpt lat="45.60659" lon="6.6529">
        <ele>1959.35</ele>
        <time>2016-02-06T09:27:43.000Z</time>
      </trkpt>
      <trkpt lat="45.60677" lon="6.65298">
        <ele>1955.66</ele>
        <time>2016-02-06T09:28:11.000Z</time>
      </trkpt>
      <trkpt lat="45.60695" lon="6.65304">
        <ele>1961.59</ele>
        <time>2016-02-06T09:28:31.000Z</time>
      </trkpt>
      <trkpt lat="45.60713" lon="6.65316">
        <ele>1961.51</ele>
        <time>2016-02-06T09:28:47.000Z</time>
      </trkpt>
      <trkpt lat="45.60727" lon="6.65333">
        <ele>1953.15</ele>
        <time>2016-02-06T09:29:05.000Z</time>
      </trkpt>
      <trkpt lat="45.60744" lon="6.65342">
        <ele>1953.75</ele>
        <time>2016-02-06T09:29:31.000Z</time>
      </trkpt>
      <trkpt lat="45.60744" lon="6.65342">
        <ele>1953.75</ele>
        <time>2016-02-06T09:29:31.000Z</time>
      </trkpt>
      <trkpt lat="45.60753" lon="6.65348">
        <ele>1952.66</ele>
        <time>2016-02-06T09:29:45.000Z</time>
      </trkpt>
      <trkpt lat="45.6077" lon="6.65361">
        <ele>1960.75</ele>
        <time>2016-02-06T09:30:07.000Z</time>
      </trkpt>
      <trkpt lat="45.60789" lon="6.65364">
        <ele>1967.9</ele>
        <time>2016-02-06T09:30:41.000Z</time>
      </trkpt>
      <trkpt lat="45.60807" lon="6.65367">
        <ele>1963.93</ele>
        <time>2016-02-06T09:31:13.000Z</time>
      </trkpt>
      <trkpt lat="45.60826" lon="6.65368">
        <ele>1966.69</ele>
        <time>2016-02-06T09:31:39.000Z</time>
      </trkpt>
      <trkpt lat="45.60845" lon="6.65374">
        <ele>1964.74</ele>
        <time>2016-02-06T09:31:57.000Z</time>
      </trkpt>
      <trkpt lat="45.60864" lon="6.65377">
        <ele>1967.39</ele>
        <time>2016-02-06T09:32:19.000Z</time>
      </trkpt>
      <trkpt lat="45.60882" lon="6.65378">
        <ele>1975.68</ele>
        <time>2016-02-06T09:32:39.000Z</time>
      </trkpt>
      <trkpt lat="45.60901" lon="6.65379">
        <ele>1982.39</ele>
        <time>2016-02-06T09:33:11.000Z</time>
      </trkpt>
      <trkpt lat="45.6092" lon="6.65386">
        <ele>1985.28</ele>
        <time>2016-02-06T09:33:37.000Z</time>
      </trkpt>
      <trkpt lat="45.6092" lon="6.65386">
        <ele>1985.28</ele>
        <time>2016-02-06T09:33:37.000Z</time>
      </trkpt>
      <trkpt lat="45.60924" lon="6.65389">
        <ele>1987.2</ele>
        <time>2016-02-06T09:33:45.000Z</time>
      </trkpt>
      <trkpt lat="45.60942" lon="6.65397">
        <ele>2000.27</ele>
        <time>2016-02-06T09:34:15.000Z</time>
      </trkpt>
      <trkpt lat="45.60961" lon="6.65406">
        <ele>2006.27</ele>
        <time>2016-02-06T09:34:41.000Z</time>
      </trkpt>
      <trkpt lat="45.6098" lon="6.65414">
        <ele>2008.06</ele>
        <time>2016-02-06T09:35:11.000Z</time>
      </trkpt>
      <trkpt lat="45.60998" lon="6.65415">
        <ele>2006.06</ele>
        <time>2016-02-06T09:35:43.000Z</time>
      </trkpt>
      <trkpt lat="45.61017" lon="6.65413">
        <ele>2004.76</ele>
        <time>2016-02-06T09:36:09.000Z</time>
      </trkpt>
      <trkpt lat="45.61036" lon="6.65409">
        <ele>2009.92</ele>
        <time>2016-02-06T09:36:35.000Z</time>
      </trkpt>
      <trkpt lat="45.61053" lon="6.65401">
        <ele>2014.95</ele>
        <time>2016-02-06T09:36:59.000Z</time>
      </trkpt>
      <trkpt lat="45.61071" lon="6.65394">
        <ele>2017.83</ele>
        <time>2016-02-06T09:37:23.000Z</time>
      </trkpt>
      <trkpt lat="45.61071" lon="6.65394">
        <ele>2017.83</ele>
        <time>2016-02-06T09:37:23.000Z</time>
      </trkpt>
      <trkpt lat="45.61087" lon="6.65386">
        <ele>2025.9</ele>
        <time>2016-02-06T09:37:45.000Z</time>
      </trkpt>
      <trkpt lat="45.61105" lon="6.6539">
        <ele>2024.81</ele>
        <time>2016-02-06T09:38:11.000Z</time>
      </trkpt>
      <trkpt lat="45.61123" lon="6.65403">
        <ele>2027.81</ele>
        <time>2016-02-06T09:38:37.000Z</time>
      </trkpt>
      <trkpt lat="45.61139" lon="6.65413">
        <ele>2034.66</ele>
        <time>2016-02-06T09:39:03.000Z</time>
      </trkpt>
      <trkpt lat="45.61156" lon="6.65426">
        <ele>2046.63</ele>
        <time>2016-02-06T09:39:27.000Z</time>
      </trkpt>
      <trkpt lat="45.61174" lon="6.65433">
        <ele>2051.72</ele>
        <time>2016-02-06T09:39:51.000Z</time>
      </trkpt>
      <trkpt lat="45.61177" lon="6.65458">
        <ele>2050.99</ele>
        <time>2016-02-06T09:40:25.000Z</time>
      </trkpt>
      <trkpt lat="45.61195" lon="6.65464">
        <ele>2056.38</ele>
        <time>2016-02-06T09:40:51.000Z</time>
      </trkpt>
      <trkpt lat="45.61214" lon="6.65462">
        <ele>2059.31</ele>
        <time>2016-02-06T09:41:23.000Z</time>
      </trkpt>
      <trkpt lat="45.61214" lon="6.65462">
        <ele>2059.31</ele>
        <time>2016-02-06T09:41:23.000Z</time>
      </trkpt>
      <trkpt lat="45.61228" lon="6.65462">
        <ele>2067.58</ele>
        <time>2016-02-06T09:41:45.000Z</time>
      </trkpt>
      <trkpt lat="45.61246" lon="6.65469">
        <ele>2069.1</ele>
        <time>2016-02-06T09:42:17.000Z</time>
      </trkpt>
      <trkpt lat="45.61263" lon="6.65481">
        <ele>2075.46</ele>
        <time>2016-02-06T09:42:49.000Z</time>
      </trkpt>
      <trkpt lat="45.61267" lon="6.65506">
        <ele>2085.03</ele>
        <time>2016-02-06T09:43:23.000Z</time>
      </trkpt>
      <trkpt lat="45.61285" lon="6.65511">
        <ele>2090.48</ele>
        <time>2016-02-06T09:43:43.000Z</time>
      </trkpt>
      <trkpt lat="45.61303" lon="6.65501">
        <ele>2084.63</ele>
        <time>2016-02-06T09:44:07.000Z</time>
      </trkpt>
      <trkpt lat="45.61319" lon="6.65516">
        <ele>2097.86</ele>
        <time>2016-02-06T09:44:57.000Z</time>
      </trkpt>
      <trkpt lat="45.61319" lon="6.65516">
        <ele>2097.86</ele>
        <time>2016-02-06T09:44:57.000Z</time>
      </trkpt>
      <trkpt lat="45.61325" lon="6.65517">
        <ele>2105.5</ele>
        <time>2016-02-06T09:45:45.000Z</time>
      </trkpt>
      <trkpt lat="45.61325" lon="6.65517">
        <ele>2105.5</ele>
        <time>2016-02-06T09:45:45.000Z</time>
      </trkpt>
      <trkpt lat="45.61324" lon="6.65515">
        <ele>2112</ele>
        <time>2016-02-06T09:49:45.000Z</time>
      </trkpt>
      <trkpt lat="45.61324" lon="6.65515">
        <ele>2112</ele>
        <time>2016-02-06T09:49:45.000Z</time>
      </trkpt>
      <trkpt lat="45.6133" lon="6.65509">
        <ele>2105.92</ele>
        <time>2016-02-06T09:53:45.000Z</time>
      </trkpt>
      <trkpt lat="45.6133" lon="6.65509">
        <ele>2105.92</ele>
        <time>2016-02-06T09:53:45.000Z</time>
      </trkpt>
      <trkpt lat="45.6133" lon="6.65512">
        <ele>2108</ele>
        <time>2016-02-06T09:57:45.000Z</time>
      </trkpt>
      <trkpt lat="45.6133" lon="6.65512">
        <ele>2108</ele>
        <time>2016-02-06T09:57:45.000Z</time>
      </trkpt>
      <trkpt lat="45.61329" lon="6.65513">
        <ele>2107</ele>
        <time>2016-02-06T10:01:45.000Z</time>
      </trkpt>
      <trkpt lat="45.61346" lon="6.6552">
        <ele>2095.94</ele>
        <time>2016-02-06T10:03:27.000Z</time>
      </trkpt>
      <trkpt lat="45.61361" lon="6.65538">
        <ele>2093.13</ele>
        <time>2016-02-06T10:03:53.000Z</time>
      </trkpt>
      <trkpt lat="45.61364" lon="6.65565">
        <ele>2096.32</ele>
        <time>2016-02-06T10:04:23.000Z</time>
      </trkpt>
      <trkpt lat="45.61381" lon="6.65572">
        <ele>2097.71</ele>
        <time>2016-02-06T10:04:57.000Z</time>
      </trkpt>
      <trkpt lat="45.614" lon="6.65579">
        <ele>2102.27</ele>
        <time>2016-02-06T10:05:23.000Z</time>
      </trkpt>
      <trkpt lat="45.614" lon="6.65579">
        <ele>2102.27</ele>
        <time>2016-02-06T10:05:23.000Z</time>
      </trkpt>
      <trkpt lat="45.61414" lon="6.65586">
        <ele>2104.12</ele>
        <time>2016-02-06T10:05:45.000Z</time>
      </trkpt>
      <trkpt lat="45.61431" lon="6.65597">
        <ele>2101.65</ele>
        <time>2016-02-06T10:06:11.000Z</time>
      </trkpt>
      <trkpt lat="45.6145" lon="6.65598">
        <ele>2105.73</ele>
        <time>2016-02-06T10:06:33.000Z</time>
      </trkpt>
      <trkpt lat="45.61468" lon="6.656">
        <ele>2108.25</ele>
        <time>2016-02-06T10:06:59.000Z</time>
      </trkpt>
      <trkpt lat="45.61486" lon="6.65604">
        <ele>2114.09</ele>
        <time>2016-02-06T10:07:27.000Z</time>
      </trkpt>
      <trkpt lat="45.61505" lon="6.65602">
        <ele>2113.2</ele>
        <time>2016-02-06T10:07:55.000Z</time>
      </trkpt>
      <trkpt lat="45.61523" lon="6.65598">
        <ele>2120.9</ele>
        <time>2016-02-06T10:08:17.000Z</time>
      </trkpt>
      <trkpt lat="45.61541" lon="6.65592">
        <ele>2121.33</ele>
        <time>2016-02-06T10:08:43.000Z</time>
      </trkpt>
      <trkpt lat="45.61558" lon="6.65586">
        <ele>2123.49</ele>
        <time>2016-02-06T10:09:07.000Z</time>
      </trkpt>
      <trkpt lat="45.61577" lon="6.65582">
        <ele>2120.13</ele>
        <time>2016-02-06T10:09:37.000Z</time>
      </trkpt>
      <trkpt lat="45.61577" lon="6.65582">
        <ele>2120.13</ele>
        <time>2016-02-06T10:09:37.000Z</time>
      </trkpt>
      <trkpt lat="45.61581" lon="6.65581">
        <ele>2120.2</ele>
        <time>2016-02-06T10:09:45.000Z</time>
      </trkpt>
      <trkpt lat="45.616" lon="6.65579">
        <ele>2125</ele>
        <time>2016-02-06T10:10:13.000Z</time>
      </trkpt>
      <trkpt lat="45.61618" lon="6.65573">
        <ele>2130.53</ele>
        <time>2016-02-06T10:10:39.000Z</time>
      </trkpt>
      <trkpt lat="45.61635" lon="6.65563">
        <ele>2132.46</ele>
        <time>2016-02-06T10:11:09.000Z</time>
      </trkpt>
      <trkpt lat="45.61644" lon="6.65539">
        <ele>2141.53</ele>
        <time>2016-02-06T10:11:41.000Z</time>
      </trkpt>
      <trkpt lat="45.61658" lon="6.6552">
        <ele>2144.46</ele>
        <time>2016-02-06T10:12:15.000Z</time>
      </trkpt>
      <trkpt lat="45.61675" lon="6.65508">
        <ele>2151.45</ele>
        <time>2016-02-06T10:12:43.000Z</time>
      </trkpt>
      <trkpt lat="45.61684" lon="6.65485">
        <ele>2158.44</ele>
        <time>2016-02-06T10:13:27.000Z</time>
      </trkpt>
      <trkpt lat="45.61684" lon="6.65485">
        <ele>2158.44</ele>
        <time>2016-02-06T10:13:27.000Z</time>
      </trkpt>
      <trkpt lat="45.61687" lon="6.65476">
        <ele>2161.49</ele>
        <time>2016-02-06T10:13:45.000Z</time>
      </trkpt>
      <trkpt lat="45.61704" lon="6.6547">
        <ele>2170.12</ele>
        <time>2016-02-06T10:14:21.000Z</time>
      </trkpt>
      <trkpt lat="45.61719" lon="6.65486">
        <ele>2173.98</ele>
        <time>2016-02-06T10:14:55.000Z</time>
      </trkpt>
      <trkpt lat="45.61731" lon="6.65467">
        <ele>2178.23</ele>
        <time>2016-02-06T10:15:31.000Z</time>
      </trkpt>
      <trkpt lat="45.61736" lon="6.65441">
        <ele>2184.47</ele>
        <time>2016-02-06T10:16:11.000Z</time>
      </trkpt>
      <trkpt lat="45.61742" lon="6.65416">
        <ele>2186.09</ele>
        <time>2016-02-06T10:16:41.000Z</time>
      </trkpt>
      <trkpt lat="45.61756" lon="6.65396">
        <ele>2187.3</ele>
        <time>2016-02-06T10:17:11.000Z</time>
      </trkpt>
      <trkpt lat="45.61768" lon="6.65377">
        <ele>2198.98</ele>
        <time>2016-02-06T10:17:39.000Z</time>
      </trkpt>
      <trkpt lat="45.61768" lon="6.65377">
        <ele>2198.98</ele>
        <time>2016-02-06T10:17:39.000Z</time>
      </trkpt>
      <trkpt lat="45.61771" lon="6.65379">
        <ele>2202</ele>
        <time>2016-02-06T10:17:45.000Z</time>
      </trkpt>
      <trkpt lat="45.61783" lon="6.65398">
        <ele>2211.37</ele>
        <time>2016-02-06T10:18:23.000Z</time>
      </trkpt>
      <trkpt lat="45.61798" lon="6.65415">
        <ele>2214.47</ele>
        <time>2016-02-06T10:18:53.000Z</time>
      </trkpt>
      <trkpt lat="45.61816" lon="6.65411">
        <ele>2220.13</ele>
        <time>2016-02-06T10:19:51.000Z</time>
      </trkpt>
      <trkpt lat="45.61821" lon="6.65385">
        <ele>2228.04</ele>
        <time>2016-02-06T10:20:23.000Z</time>
      </trkpt>
      <trkpt lat="45.61821" lon="6.65385">
        <ele>2228.04</ele>
        <time>2016-02-06T10:20:23.000Z</time>
      </trkpt>
      <trkpt lat="45.61821" lon="6.65383">
        <ele>2231.5</ele>
        <time>2016-02-06T10:21:45.000Z</time>
      </trkpt>
      <trkpt lat="45.61839" lon="6.65391">
        <ele>2235.71</ele>
        <time>2016-02-06T10:22:21.000Z</time>
      </trkpt>
      <trkpt lat="45.61852" lon="6.65371">
        <ele>2245.96</ele>
        <time>2016-02-06T10:23:13.000Z</time>
      </trkpt>
      <trkpt lat="45.61847" lon="6.65343">
        <ele>2259.39</ele>
        <time>2016-02-06T10:23:39.000Z</time>
      </trkpt>
      <trkpt lat="45.61843" lon="6.65318">
        <ele>2262.63</ele>
        <time>2016-02-06T10:24:17.000Z</time>
      </trkpt>
      <trkpt lat="45.61857" lon="6.653">
        <ele>2263.47</ele>
        <time>2016-02-06T10:24:59.000Z</time>
      </trkpt>
      <trkpt lat="45.61857" lon="6.653">
        <ele>2263.47</ele>
        <time>2016-02-06T10:24:59.000Z</time>
      </trkpt>
      <trkpt lat="45.61861" lon="6.65287">
        <ele>2271.24</ele>
        <time>2016-02-06T10:25:45.000Z</time>
      </trkpt>
      <trkpt lat="45.61861" lon="6.65287">
        <ele>2271.24</ele>
        <time>2016-02-06T10:25:45.000Z</time>
      </trkpt>
      <trkpt lat="45.61861" lon="6.65282">
        <ele>2270</ele>
        <time>2016-02-06T10:29:45.000Z</time>
      </trkpt>
      <trkpt lat="45.61861" lon="6.65282">
        <ele>2270</ele>
        <time>2016-02-06T10:29:45.000Z</time>
      </trkpt>
      <trkpt lat="45.61863" lon="6.65282">
        <ele>2271</ele>
        <time>2016-02-06T10:33:45.000Z</time>
      </trkpt>
      <trkpt lat="45.61876" lon="6.65264">
        <ele>2276.11</ele>
        <time>2016-02-06T10:36:21.000Z</time>
      </trkpt>
      <trkpt lat="45.61893" lon="6.65276">
        <ele>2279.69</ele>
        <time>2016-02-06T10:37:05.000Z</time>
      </trkpt>
      <trkpt lat="45.61911" lon="6.65286">
        <ele>2286.43</ele>
        <time>2016-02-06T10:37:41.000Z</time>
      </trkpt>
      <trkpt lat="45.61911" lon="6.65286">
        <ele>2286.43</ele>
        <time>2016-02-06T10:37:41.000Z</time>
      </trkpt>
      <trkpt lat="45.61913" lon="6.65287">
        <ele>2285.61</ele>
        <time>2016-02-06T10:37:45.000Z</time>
      </trkpt>
      <trkpt lat="45.61929" lon="6.65302">
        <ele>2289.11</ele>
        <time>2016-02-06T10:38:13.000Z</time>
      </trkpt>
      <trkpt lat="45.61945" lon="6.65287">
        <ele>2293.57</ele>
        <time>2016-02-06T10:39:17.000Z</time>
      </trkpt>
      <trkpt lat="45.61955" lon="6.65265">
        <ele>2295.22</ele>
        <time>2016-02-06T10:39:47.000Z</time>
      </trkpt>
      <trkpt lat="45.61969" lon="6.65248">
        <ele>2300.88</ele>
        <time>2016-02-06T10:40:17.000Z</time>
      </trkpt>
      <trkpt lat="45.61977" lon="6.65224">
        <ele>2313.57</ele>
        <time>2016-02-06T10:40:45.000Z</time>
      </trkpt>
      <trkpt lat="45.61977" lon="6.65224">
        <ele>2313.57</ele>
        <time>2016-02-06T10:40:45.000Z</time>
      </trkpt>
      <trkpt lat="45.61988" lon="6.65211">
        <ele>2323.94</ele>
        <time>2016-02-06T10:41:45.000Z</time>
      </trkpt>
      <trkpt lat="45.61988" lon="6.65211">
        <ele>2323.94</ele>
        <time>2016-02-06T10:41:45.000Z</time>
      </trkpt>
      <trkpt lat="45.61986" lon="6.6521">
        <ele>2324.63</ele>
        <time>2016-02-06T10:45:45.000Z</time>
      </trkpt>
      <trkpt lat="45.62001" lon="6.65195">
        <ele>2317.51</ele>
        <time>2016-02-06T10:46:39.000Z</time>
      </trkpt>
      <trkpt lat="45.62015" lon="6.65176">
        <ele>2316.7</ele>
        <time>2016-02-06T10:47:03.000Z</time>
      </trkpt>
      <trkpt lat="45.62027" lon="6.65156">
        <ele>2314.4</ele>
        <time>2016-02-06T10:47:27.000Z</time>
      </trkpt>
      <trkpt lat="45.62035" lon="6.6513">
        <ele>2314.98</ele>
        <time>2016-02-06T10:47:45.000Z</time>
      </trkpt>
      <trkpt lat="45.62051" lon="6.65115">
        <ele>2312.93</ele>
        <time>2016-02-06T10:48:07.000Z</time>
      </trkpt>
      <trkpt lat="45.62061" lon="6.65091">
        <ele>2323.13</ele>
        <time>2016-02-06T10:48:31.000Z</time>
      </trkpt>
      <trkpt lat="45.62072" lon="6.65071">
        <ele>2326.71</ele>
        <time>2016-02-06T10:48:57.000Z</time>
      </trkpt>
      <trkpt lat="45.62088" lon="6.65057">
        <ele>2329.62</ele>
        <time>2016-02-06T10:49:25.000Z</time>
      </trkpt>
      <trkpt lat="45.62088" lon="6.65057">
        <ele>2329.62</ele>
        <time>2016-02-06T10:49:25.000Z</time>
      </trkpt>
      <trkpt lat="45.62101" lon="6.65049">
        <ele>2335.13</ele>
        <time>2016-02-06T10:49:45.000Z</time>
      </trkpt>
      <trkpt lat="45.62116" lon="6.65033">
        <ele>2335.97</ele>
        <time>2016-02-06T10:50:11.000Z</time>
      </trkpt>
      <trkpt lat="45.62134" lon="6.65023">
        <ele>2349.18</ele>
        <time>2016-02-06T10:50:41.000Z</time>
      </trkpt>
      <trkpt lat="45.6215" lon="6.6501">
        <ele>2355.83</ele>
        <time>2016-02-06T10:51:15.000Z</time>
      </trkpt>
      <trkpt lat="45.6216" lon="6.64988">
        <ele>2356.92</ele>
        <time>2016-02-06T10:51:47.000Z</time>
      </trkpt>
      <trkpt lat="45.62176" lon="6.64974">
        <ele>2365.92</ele>
        <time>2016-02-06T10:52:19.000Z</time>
      </trkpt>
      <trkpt lat="45.62194" lon="6.64972">
        <ele>2366.68</ele>
        <time>2016-02-06T10:52:49.000Z</time>
      </trkpt>
      <trkpt lat="45.62212" lon="6.64966">
        <ele>2372.48</ele>
        <time>2016-02-06T10:53:23.000Z</time>
      </trkpt>
      <trkpt lat="45.62212" lon="6.64966">
        <ele>2372.48</ele>
        <time>2016-02-06T10:53:23.000Z</time>
      </trkpt>
      <trkpt lat="45.62222" lon="6.64956">
        <ele>2375.05</ele>
        <time>2016-02-06T10:53:45.000Z</time>
      </trkpt>
      <trkpt lat="45.62239" lon="6.64947">
        <ele>2378.14</ele>
        <time>2016-02-06T10:54:13.000Z</time>
      </trkpt>
      <trkpt lat="45.62257" lon="6.64952">
        <ele>2381.73</ele>
        <time>2016-02-06T10:54:39.000Z</time>
      </trkpt>
      <trkpt lat="45.62275" lon="6.64959">
        <ele>2382.84</ele>
        <time>2016-02-06T10:55:09.000Z</time>
      </trkpt>
      <trkpt lat="45.62293" lon="6.64966">
        <ele>2391.61</ele>
        <time>2016-02-06T10:55:33.000Z</time>
      </trkpt>
      <trkpt lat="45.62309" lon="6.64979">
        <ele>2401.21</ele>
        <time>2016-02-06T10:56:05.000Z</time>
      </trkpt>
      <trkpt lat="45.62327" lon="6.64989">
        <ele>2403.95</ele>
        <time>2016-02-06T10:56:41.000Z</time>
      </trkpt>
      <trkpt lat="45.62344" lon="6.64998">
        <ele>2403.5</ele>
        <time>2016-02-06T10:57:11.000Z</time>
      </trkpt>
      <trkpt lat="45.62344" lon="6.64998">
        <ele>2403.5</ele>
        <time>2016-02-06T10:57:11.000Z</time>
      </trkpt>
      <trkpt lat="45.62342" lon="6.64998">
        <ele>2405.88</ele>
        <time>2016-02-06T10:57:45.000Z</time>
      </trkpt>
      <trkpt lat="45.62341" lon="6.64972">
        <ele>2416.87</ele>
        <time>2016-02-06T10:59:47.000Z</time>
      </trkpt>
      <trkpt lat="45.62339" lon="6.64944">
        <ele>2416.72</ele>
        <time>2016-02-06T11:00:29.000Z</time>
      </trkpt>
      <trkpt lat="45.62346" lon="6.64919">
        <ele>2415.75</ele>
        <time>2016-02-06T11:00:49.000Z</time>
      </trkpt>
      <trkpt lat="45.62357" lon="6.64896">
        <ele>2414.13</ele>
        <time>2016-02-06T11:01:13.000Z</time>
      </trkpt>
      <trkpt lat="45.62357" lon="6.64896">
        <ele>2414.13</ele>
        <time>2016-02-06T11:01:13.000Z</time>
      </trkpt>
      <trkpt lat="45.62367" lon="6.64886">
        <ele>2424.88</ele>
        <time>2016-02-06T11:01:45.000Z</time>
      </trkpt>
      <trkpt lat="45.62351" lon="6.64902">
        <ele>2434.65</ele>
        <time>2016-02-06T11:03:03.000Z</time>
      </trkpt>
      <trkpt lat="45.62338" lon="6.64923">
        <ele>2432.86</ele>
        <time>2016-02-06T11:03:19.000Z</time>
      </trkpt>
      <trkpt lat="45.62338" lon="6.64923">
        <ele>2432.86</ele>
        <time>2016-02-06T11:03:19.000Z</time>
      </trkpt>
      <trkpt lat="45.62334" lon="6.64926">
        <ele>2437.75</ele>
        <time>2016-02-06T11:05:45.000Z</time>
      </trkpt>
      <trkpt lat="45.62334" lon="6.64926">
        <ele>2437.75</ele>
        <time>2016-02-06T11:05:45.000Z</time>
      </trkpt>
      <trkpt lat="45.62337" lon="6.6492">
        <ele>2433</ele>
        <time>2016-02-06T11:09:48.000Z</time>
      </trkpt>
      <trkpt lat="45.62351" lon="6.64903">
        <ele>2422.41</ele>
        <time>2016-02-06T11:12:28.000Z</time>
      </trkpt>
      <trkpt lat="45.62367" lon="6.64887">
        <ele>2424.01</ele>
        <time>2016-02-06T11:12:56.000Z</time>
      </trkpt>
      <trkpt lat="45.62382" lon="6.64873">
        <ele>2423.59</ele>
        <time>2016-02-06T11:13:16.000Z</time>
      </trkpt>
      <trkpt lat="45.62398" lon="6.64859">
        <ele>2431.48</ele>
        <time>2016-02-06T11:13:38.000Z</time>
      </trkpt>
      <trkpt lat="45.62398" lon="6.64859">
        <ele>2431.48</ele>
        <time>2016-02-06T11:13:38.000Z</time>
      </trkpt>
      <trkpt lat="45.62405" lon="6.64851">
        <ele>2429.64</ele>
        <time>2016-02-06T11:13:48.000Z</time>
      </trkpt>
      <trkpt lat="45.62421" lon="6.64838">
        <ele>2433.86</ele>
        <time>2016-02-06T11:14:14.000Z</time>
      </trkpt>
      <trkpt lat="45.62437" lon="6.64826">
        <ele>2436.3</ele>
        <time>2016-02-06T11:14:40.000Z</time>
      </trkpt>
      <trkpt lat="45.62457" lon="6.64828">
        <ele>2420.28</ele>
        <time>2016-02-06T11:15:02.000Z</time>
      </trkpt>
      <trkpt lat="45.62475" lon="6.6483">
        <ele>2418.32</ele>
        <time>2016-02-06T11:15:24.000Z</time>
      </trkpt>
      <trkpt lat="45.62493" lon="6.64822">
        <ele>2421.57</ele>
        <time>2016-02-06T11:15:56.000Z</time>
      </trkpt>
      <trkpt lat="45.62512" lon="6.64821">
        <ele>2420.84</ele>
        <time>2016-02-06T11:16:20.000Z</time>
      </trkpt>
      <trkpt lat="45.6253" lon="6.64826">
        <ele>2431.25</ele>
        <time>2016-02-06T11:17:20.000Z</time>
      </trkpt>
      <trkpt lat="45.62548" lon="6.64816">
        <ele>2441.14</ele>
        <time>2016-02-06T11:17:44.000Z</time>
      </trkpt>
      <trkpt lat="45.62548" lon="6.64816">
        <ele>2441.14</ele>
        <time>2016-02-06T11:17:44.000Z</time>
      </trkpt>
      <trkpt lat="45.62551" lon="6.64814">
        <ele>2441.54</ele>
        <time>2016-02-06T11:17:48.000Z</time>
      </trkpt>
      <trkpt lat="45.62569" lon="6.64805">
        <ele>2444.16</ele>
        <time>2016-02-06T11:18:10.000Z</time>
      </trkpt>
      <trkpt lat="45.62584" lon="6.64787">
        <ele>2444.64</ele>
        <time>2016-02-06T11:18:36.000Z</time>
      </trkpt>
      <trkpt lat="45.62599" lon="6.6477">
        <ele>2449</ele>
        <time>2016-02-06T11:19:12.000Z</time>
      </trkpt>
      <trkpt lat="45.62618" lon="6.64771">
        <ele>2458.29</ele>
        <time>2016-02-06T11:19:44.000Z</time>
      </trkpt>
      <trkpt lat="45.62636" lon="6.64778">
        <ele>2464.18</ele>
        <time>2016-02-06T11:20:08.000Z</time>
      </trkpt>
      <trkpt lat="45.62654" lon="6.64771">
        <ele>2469.61</ele>
        <time>2016-02-06T11:21:20.000Z</time>
      </trkpt>
      <trkpt lat="45.62654" lon="6.64771">
        <ele>2469.61</ele>
        <time>2016-02-06T11:21:20.000Z</time>
      </trkpt>
      <trkpt lat="45.62665" lon="6.64764">
        <ele>2469.8</ele>
        <time>2016-02-06T11:21:48.000Z</time>
      </trkpt>
      <trkpt lat="45.62683" lon="6.64761">
        <ele>2478.16</ele>
        <time>2016-02-06T11:22:58.000Z</time>
      </trkpt>
      <trkpt lat="45.62702" lon="6.64757">
        <ele>2477.41</ele>
        <time>2016-02-06T11:23:20.000Z</time>
      </trkpt>
      <trkpt lat="45.62721" lon="6.64752">
        <ele>2489.93</ele>
        <time>2016-02-06T11:23:52.000Z</time>
      </trkpt>
      <trkpt lat="45.62709" lon="6.64772">
        <ele>2499.02</ele>
        <time>2016-02-06T11:25:14.000Z</time>
      </trkpt>
      <trkpt lat="45.62709" lon="6.64772">
        <ele>2499.02</ele>
        <time>2016-02-06T11:25:14.000Z</time>
      </trkpt>
      <trkpt lat="45.62711" lon="6.64771">
        <ele>2501</ele>
        <time>2016-02-06T11:25:48.000Z</time>
      </trkpt>
      <trkpt lat="45.62711" lon="6.64771">
        <ele>2501</ele>
        <time>2016-02-06T11:25:48.000Z</time>
      </trkpt>
      <trkpt lat="45.62716" lon="6.6477">
        <ele>2499.12</ele>
        <time>2016-02-06T11:29:48.000Z</time>
      </trkpt>
      <trkpt lat="45.62716" lon="6.6477">
        <ele>2499.12</ele>
        <time>2016-02-06T11:29:48.000Z</time>
      </trkpt>
      <trkpt lat="45.62719" lon="6.64769">
        <ele>2503.3</ele>
        <time>2016-02-06T11:33:48.000Z</time>
      </trkpt>
      <trkpt lat="45.62719" lon="6.64769">
        <ele>2503.3</ele>
        <time>2016-02-06T11:33:48.000Z</time>
      </trkpt>
      <trkpt lat="45.6272" lon="6.64768">
        <ele>2503</ele>
        <time>2016-02-06T11:37:48.000Z</time>
      </trkpt>
      <trkpt lat="45.6272" lon="6.64768">
        <ele>2503</ele>
        <time>2016-02-06T11:37:48.000Z</time>
      </trkpt>
      <trkpt lat="45.62718" lon="6.64772">
        <ele>2502</ele>
        <time>2016-02-06T11:41:48.000Z</time>
      </trkpt>
      <trkpt lat="45.62718" lon="6.64772">
        <ele>2502</ele>
        <time>2016-02-06T11:41:48.000Z</time>
      </trkpt>
      <trkpt lat="45.6271" lon="6.64775">
        <ele>2492.26</ele>
        <time>2016-02-06T11:45:48.000Z</time>
      </trkpt>
      <trkpt lat="45.6271" lon="6.64775">
        <ele>2492.26</ele>
        <time>2016-02-06T11:45:48.000Z</time>
      </trkpt>
      <trkpt lat="45.62713" lon="6.64765">
        <ele>2496.54</ele>
        <time>2016-02-06T11:49:48.000Z</time>
      </trkpt>
      <trkpt lat="45.62713" lon="6.64765">
        <ele>2496.54</ele>
        <time>2016-02-06T11:49:48.000Z</time>
      </trkpt>
      <trkpt lat="45.6272" lon="6.64766">
        <ele>2496.09</ele>
        <time>2016-02-06T11:53:48.000Z</time>
      </trkpt>
      <trkpt lat="45.6272" lon="6.64766">
        <ele>2496.09</ele>
        <time>2016-02-06T11:53:48.000Z</time>
      </trkpt>
      <trkpt lat="45.62718" lon="6.64779">
        <ele>2502</ele>
        <time>2016-02-06T11:57:48.000Z</time>
      </trkpt>
      <trkpt lat="45.6274" lon="6.64774">
        <ele>2501.14</ele>
        <time>2016-02-06T11:58:56.000Z</time>
      </trkpt>
      <trkpt lat="45.62748" lon="6.64805">
        <ele>2491.13</ele>
        <time>2016-02-06T11:59:04.000Z</time>
      </trkpt>
      <trkpt lat="45.6274" lon="6.64832">
        <ele>2476.99</ele>
        <time>2016-02-06T11:59:18.000Z</time>
      </trkpt>
      <trkpt lat="45.62739" lon="6.6486">
        <ele>2468.56</ele>
        <time>2016-02-06T11:59:26.000Z</time>
      </trkpt>
      <trkpt lat="45.62755" lon="6.64877">
        <ele>2463.45</ele>
        <time>2016-02-06T11:59:32.000Z</time>
      </trkpt>
      <trkpt lat="45.62757" lon="6.64906">
        <ele>2456.77</ele>
        <time>2016-02-06T11:59:56.000Z</time>
      </trkpt>
      <trkpt lat="45.62764" lon="6.64934">
        <ele>2451.24</ele>
        <time>2016-02-06T12:00:04.000Z</time>
      </trkpt>
      <trkpt lat="45.62779" lon="6.64951">
        <ele>2447.56</ele>
        <time>2016-02-06T12:00:08.000Z</time>
      </trkpt>
      <trkpt lat="45.62794" lon="6.64969">
        <ele>2442.64</ele>
        <time>2016-02-06T12:00:12.000Z</time>
      </trkpt>
      <trkpt lat="45.62813" lon="6.64987">
        <ele>2431.83</ele>
        <time>2016-02-06T12:00:18.000Z</time>
      </trkpt>
      <trkpt lat="45.62828" lon="6.65008">
        <ele>2425.71</ele>
        <time>2016-02-06T12:00:22.000Z</time>
      </trkpt>
      <trkpt lat="45.62842" lon="6.65031">
        <ele>2420.68</ele>
        <time>2016-02-06T12:00:26.000Z</time>
      </trkpt>
      <trkpt lat="45.62842" lon="6.65031">
        <ele>2420.68</ele>
        <time>2016-02-06T12:00:26.000Z</time>
      </trkpt>
      <trkpt lat="45.62843" lon="6.65016">
        <ele>2404.66</ele>
        <time>2016-02-06T12:01:48.000Z</time>
      </trkpt>
      <trkpt lat="45.62852" lon="6.65053">
        <ele>2394.5</ele>
        <time>2016-02-06T12:02:36.000Z</time>
      </trkpt>
      <trkpt lat="45.62866" lon="6.6508">
        <ele>2387.56</ele>
        <time>2016-02-06T12:02:42.000Z</time>
      </trkpt>
      <trkpt lat="45.62889" lon="6.65092">
        <ele>2381.94</ele>
        <time>2016-02-06T12:03:00.000Z</time>
      </trkpt>
      <trkpt lat="45.62897" lon="6.65126">
        <ele>2378.74</ele>
        <time>2016-02-06T12:03:06.000Z</time>
      </trkpt>
      <trkpt lat="45.62898" lon="6.65159">
        <ele>2374.94</ele>
        <time>2016-02-06T12:03:10.000Z</time>
      </trkpt>
      <trkpt lat="45.62902" lon="6.65186">
        <ele>2369.98</ele>
        <time>2016-02-06T12:03:14.000Z</time>
      </trkpt>
      <trkpt lat="45.62915" lon="6.65212">
        <ele>2364.75</ele>
        <time>2016-02-06T12:03:18.000Z</time>
      </trkpt>
      <trkpt lat="45.62915" lon="6.65238">
        <ele>2356.94</ele>
        <time>2016-02-06T12:03:22.000Z</time>
      </trkpt>
      <trkpt lat="45.62938" lon="6.65281">
        <ele>2326.66</ele>
        <time>2016-02-06T12:05:24.000Z</time>
      </trkpt>
      <trkpt lat="45.62957" lon="6.65305">
        <ele>2319.16</ele>
        <time>2016-02-06T12:05:28.000Z</time>
      </trkpt>
      <trkpt lat="45.62981" lon="6.65323">
        <ele>2313.79</ele>
        <time>2016-02-06T12:05:32.000Z</time>
      </trkpt>
      <trkpt lat="45.62999" lon="6.65349">
        <ele>2310.95</ele>
        <time>2016-02-06T12:05:36.000Z</time>
      </trkpt>
      <trkpt lat="45.6302" lon="6.65368">
        <ele>2304.74</ele>
        <time>2016-02-06T12:05:40.000Z</time>
      </trkpt>
      <trkpt lat="45.63038" lon="6.65375">
        <ele>2297.68</ele>
        <time>2016-02-06T12:05:44.000Z</time>
      </trkpt>
      <trkpt lat="45.63038" lon="6.65375">
        <ele>2297.68</ele>
        <time>2016-02-06T12:05:44.000Z</time>
      </trkpt>
      <trkpt lat="45.63043" lon="6.65374">
        <ele>2291.42</ele>
        <time>2016-02-06T12:05:48.000Z</time>
      </trkpt>
      <trkpt lat="45.63052" lon="6.65415">
        <ele>2274.07</ele>
        <time>2016-02-06T12:07:10.000Z</time>
      </trkpt>
      <trkpt lat="45.63055" lon="6.65441">
        <ele>2272.27</ele>
        <time>2016-02-06T12:07:14.000Z</time>
      </trkpt>
      <trkpt lat="45.63063" lon="6.65465">
        <ele>2270.32</ele>
        <time>2016-02-06T12:07:18.000Z</time>
      </trkpt>
      <trkpt lat="45.63068" lon="6.65499">
        <ele>2266.83</ele>
        <time>2016-02-06T12:07:22.000Z</time>
      </trkpt>
      <trkpt lat="45.63074" lon="6.65528">
        <ele>2262.6</ele>
        <time>2016-02-06T12:07:28.000Z</time>
      </trkpt>
      <trkpt lat="45.63081" lon="6.65556">
        <ele>2253.71</ele>
        <time>2016-02-06T12:07:40.000Z</time>
      </trkpt>
      <trkpt lat="45.63102" lon="6.65572">
        <ele>2246.11</ele>
        <time>2016-02-06T12:07:48.000Z</time>
      </trkpt>
      <trkpt lat="45.63118" lon="6.65582">
        <ele>2241.88</ele>
        <time>2016-02-06T12:08:00.000Z</time>
      </trkpt>
      <trkpt lat="45.6314" lon="6.65597">
        <ele>2236.38</ele>
        <time>2016-02-06T12:09:14.000Z</time>
      </trkpt>
      <trkpt lat="45.63158" lon="6.65611">
        <ele>2232.92</ele>
        <time>2016-02-06T12:09:20.000Z</time>
      </trkpt>
      <trkpt lat="45.63167" lon="6.65635">
        <ele>2228.15</ele>
        <time>2016-02-06T12:09:30.000Z</time>
      </trkpt>
      <trkpt lat="45.63167" lon="6.65635">
        <ele>2228.15</ele>
        <time>2016-02-06T12:09:30.000Z</time>
      </trkpt>
      <trkpt lat="45.63166" lon="6.65655">
        <ele>2217.41</ele>
        <time>2016-02-06T12:09:48.000Z</time>
      </trkpt>
      <trkpt lat="45.63164" lon="6.65681">
        <ele>2206.95</ele>
        <time>2016-02-06T12:10:22.000Z</time>
      </trkpt>
      <trkpt lat="45.63159" lon="6.65715">
        <ele>2201.06</ele>
        <time>2016-02-06T12:10:30.000Z</time>
      </trkpt>
      <trkpt lat="45.63157" lon="6.65744">
        <ele>2192.26</ele>
        <time>2016-02-06T12:10:36.000Z</time>
      </trkpt>
      <trkpt lat="45.63179" lon="6.65759">
        <ele>2184.02</ele>
        <time>2016-02-06T12:10:44.000Z</time>
      </trkpt>
      <trkpt lat="45.63197" lon="6.65775">
        <ele>2180.5</ele>
        <time>2016-02-06T12:10:48.000Z</time>
      </trkpt>
      <trkpt lat="45.63214" lon="6.65804">
        <ele>2175.09</ele>
        <time>2016-02-06T12:10:56.000Z</time>
      </trkpt>
      <trkpt lat="45.63234" lon="6.65827">
        <ele>2173.77</ele>
        <time>2016-02-06T12:11:00.000Z</time>
      </trkpt>
      <trkpt lat="45.63255" lon="6.65839">
        <ele>2171.69</ele>
        <time>2016-02-06T12:11:04.000Z</time>
      </trkpt>
      <trkpt lat="45.63279" lon="6.65829">
        <ele>2171.17</ele>
        <time>2016-02-06T12:11:08.000Z</time>
      </trkpt>
      <trkpt lat="45.63296" lon="6.65841">
        <ele>2167.4</ele>
        <time>2016-02-06T12:11:14.000Z</time>
      </trkpt>
      <trkpt lat="45.63313" lon="6.65869">
        <ele>2158.8</ele>
        <time>2016-02-06T12:11:20.000Z</time>
      </trkpt>
      <trkpt lat="45.63325" lon="6.65903">
        <ele>2135.72</ele>
        <time>2016-02-06T12:11:26.000Z</time>
      </trkpt>
      <trkpt lat="45.63338" lon="6.65928">
        <ele>2126.43</ele>
        <time>2016-02-06T12:11:30.000Z</time>
      </trkpt>
      <trkpt lat="45.63351" lon="6.65948">
        <ele>2115.43</ele>
        <time>2016-02-06T12:11:44.000Z</time>
      </trkpt>
      <trkpt lat="45.63351" lon="6.65948">
        <ele>2115.43</ele>
        <time>2016-02-06T12:11:44.000Z</time>
      </trkpt>
      <trkpt lat="45.63354" lon="6.65945">
        <ele>2113</ele>
        <time>2016-02-06T12:13:48.000Z</time>
      </trkpt>
      <trkpt lat="45.63356" lon="6.65973">
        <ele>2104.45</ele>
        <time>2016-02-06T12:14:52.000Z</time>
      </trkpt>
      <trkpt lat="45.63368" lon="6.66006">
        <ele>2101.93</ele>
        <time>2016-02-06T12:14:58.000Z</time>
      </trkpt>
      <trkpt lat="45.63381" lon="6.66031">
        <ele>2102.48</ele>
        <time>2016-02-06T12:15:02.000Z</time>
      </trkpt>
      <trkpt lat="45.63385" lon="6.66071">
        <ele>2100.69</ele>
        <time>2016-02-06T12:15:08.000Z</time>
      </trkpt>
      <trkpt lat="45.63379" lon="6.66098">
        <ele>2097.67</ele>
        <time>2016-02-06T12:15:12.000Z</time>
      </trkpt>
      <trkpt lat="45.63371" lon="6.66135">
        <ele>2098.33</ele>
        <time>2016-02-06T12:15:18.000Z</time>
      </trkpt>
      <trkpt lat="45.63368" lon="6.66165">
        <ele>2094.83</ele>
        <time>2016-02-06T12:15:22.000Z</time>
      </trkpt>
      <trkpt lat="45.63366" lon="6.66191">
        <ele>2092.96</ele>
        <time>2016-02-06T12:15:26.000Z</time>
      </trkpt>
      <trkpt lat="45.63367" lon="6.66219">
        <ele>2088.31</ele>
        <time>2016-02-06T12:15:34.000Z</time>
      </trkpt>
      <trkpt lat="45.63359" lon="6.66243">
        <ele>2082.34</ele>
        <time>2016-02-06T12:15:50.000Z</time>
      </trkpt>
      <trkpt lat="45.63363" lon="6.66268">
        <ele>2083.96</ele>
        <time>2016-02-06T12:16:16.000Z</time>
      </trkpt>
      <trkpt lat="45.63356" lon="6.66294">
        <ele>2086.03</ele>
        <time>2016-02-06T12:16:30.000Z</time>
      </trkpt>
      <trkpt lat="45.63344" lon="6.66317">
        <ele>2086.88</ele>
        <time>2016-02-06T12:16:36.000Z</time>
      </trkpt>
      <trkpt lat="45.6333" lon="6.66336">
        <ele>2084.22</ele>
        <time>2016-02-06T12:16:40.000Z</time>
      </trkpt>
      <trkpt lat="45.63313" lon="6.66349">
        <ele>2083.38</ele>
        <time>2016-02-06T12:17:02.000Z</time>
      </trkpt>
      <trkpt lat="45.63297" lon="6.6636">
        <ele>2080.34</ele>
        <time>2016-02-06T12:17:10.000Z</time>
      </trkpt>
      <trkpt lat="45.63297" lon="6.6636">
        <ele>2080.34</ele>
        <time>2016-02-06T12:17:10.000Z</time>
      </trkpt>
      <trkpt lat="45.63289" lon="6.66395">
        <ele>2073.5</ele>
        <time>2016-02-06T12:17:50.000Z</time>
      </trkpt>
      <trkpt lat="45.6328" lon="6.66468">
        <ele>2069.5</ele>
        <time>2016-02-06T12:18:01.000Z</time>
      </trkpt>
      <trkpt lat="45.63285" lon="6.66501">
        <ele>2068.62</ele>
        <time>2016-02-06T12:18:06.000Z</time>
      </trkpt>
      <trkpt lat="45.63291" lon="6.66526">
        <ele>2065.16</ele>
        <time>2016-02-06T12:18:10.000Z</time>
      </trkpt>
      <trkpt lat="45.63287" lon="6.66553">
        <ele>2063.54</ele>
        <time>2016-02-06T12:18:14.000Z</time>
      </trkpt>
      <trkpt lat="45.63284" lon="6.66579">
        <ele>2060.38</ele>
        <time>2016-02-06T12:18:18.000Z</time>
      </trkpt>
      <trkpt lat="45.63274" lon="6.6661">
        <ele>2054.05</ele>
        <time>2016-02-06T12:18:24.000Z</time>
      </trkpt>
      <trkpt lat="45.63272" lon="6.66635">
        <ele>2049.38</ele>
        <time>2016-02-06T12:18:30.000Z</time>
      </trkpt>
      <trkpt lat="45.63272" lon="6.66635">
        <ele>2049.38</ele>
        <time>2016-02-06T12:18:30.000Z</time>
      </trkpt>
      <trkpt lat="45.63271" lon="6.6664">
        <ele>2047</ele>
        <time>2016-02-06T12:21:48.000Z</time>
      </trkpt>
      <trkpt lat="45.63262" lon="6.66671">
        <ele>2046</ele>
        <time>2016-02-06T12:22:46.000Z</time>
      </trkpt>
      <trkpt lat="45.63267" lon="6.66707">
        <ele>2042</ele>
        <time>2016-02-06T12:22:50.000Z</time>
      </trkpt>
      <trkpt lat="45.63213" lon="6.66869">
        <ele>2016.5</ele>
        <time>2016-02-06T12:23:06.000Z</time>
      </trkpt>
      <trkpt lat="45.63197" lon="6.66922">
        <ele>2016</ele>
        <time>2016-02-06T12:23:14.000Z</time>
      </trkpt>
      <trkpt lat="45.63179" lon="6.66927">
        <ele>2015.13</ele>
        <time>2016-02-06T12:23:42.000Z</time>
      </trkpt>
      <trkpt lat="45.63191" lon="6.66947">
        <ele>2010</ele>
        <time>2016-02-06T12:25:39.000Z</time>
      </trkpt>
      <trkpt lat="45.63216" lon="6.66993">
        <ele>2008.5</ele>
        <time>2016-02-06T12:25:47.000Z</time>
      </trkpt>
      <trkpt lat="45.63216" lon="6.66993">
        <ele>2008.5</ele>
        <time>2016-02-06T12:25:47.000Z</time>
      </trkpt>
      <trkpt lat="45.63246" lon="6.67041">
        <ele>2005</ele>
        <time>2016-02-06T12:25:55.000Z</time>
      </trkpt>
      <trkpt lat="45.63284" lon="6.67057">
        <ele>1986</ele>
        <time>2016-02-06T12:26:10.000Z</time>
      </trkpt>
      <trkpt lat="45.63319" lon="6.67069">
        <ele>1984.5</ele>
        <time>2016-02-06T12:26:16.000Z</time>
      </trkpt>
      <trkpt lat="45.63336" lon="6.67083">
        <ele>1977.62</ele>
        <time>2016-02-06T12:26:21.000Z</time>
      </trkpt>
      <trkpt lat="45.63351" lon="6.67099">
        <ele>1969.91</ele>
        <time>2016-02-06T12:26:25.000Z</time>
      </trkpt>
      <trkpt lat="45.63366" lon="6.6712">
        <ele>1960.73</ele>
        <time>2016-02-06T12:26:29.000Z</time>
      </trkpt>
      <trkpt lat="45.63377" lon="6.67143">
        <ele>1956.68</ele>
        <time>2016-02-06T12:26:33.000Z</time>
      </trkpt>
      <trkpt lat="45.63388" lon="6.67167">
        <ele>1956.17</ele>
        <time>2016-02-06T12:26:37.000Z</time>
      </trkpt>
      <trkpt lat="45.63376" lon="6.67252">
        <ele>1924.5</ele>
        <time>2016-02-06T12:27:29.000Z</time>
      </trkpt>
      <trkpt lat="45.63384" lon="6.67309">
        <ele>1928</ele>
        <time>2016-02-06T12:27:36.000Z</time>
      </trkpt>
      <trkpt lat="45.63369" lon="6.67331">
        <ele>1930.12</ele>
        <time>2016-02-06T12:27:44.000Z</time>
      </trkpt>
      <trkpt lat="45.63352" lon="6.67343">
        <ele>1931.78</ele>
        <time>2016-02-06T12:27:48.000Z</time>
      </trkpt>
      <trkpt lat="45.63329" lon="6.67356">
        <ele>1920.89</ele>
        <time>2016-02-06T12:29:44.000Z</time>
      </trkpt>
      <trkpt lat="45.63312" lon="6.6737">
        <ele>1922.44</ele>
        <time>2016-02-06T12:29:46.000Z</time>
      </trkpt>
      <trkpt lat="45.63288" lon="6.67375">
        <ele>1923.86</ele>
        <time>2016-02-06T12:29:50.000Z</time>
      </trkpt>
      <trkpt lat="45.63288" lon="6.67375">
        <ele>1923.86</ele>
        <time>2016-02-06T12:29:50.000Z</time>
      </trkpt>
      <trkpt lat="45.6328" lon="6.67378">
        <ele>1920.97</ele>
        <time>2016-02-06T12:29:54.000Z</time>
      </trkpt>
      <trkpt lat="45.63261" lon="6.67389">
        <ele>1921.24</ele>
        <time>2016-02-06T12:29:58.000Z</time>
      </trkpt>
      <trkpt lat="45.63239" lon="6.674">
        <ele>1920.56</ele>
        <time>2016-02-06T12:30:02.000Z</time>
      </trkpt>
      <trkpt lat="45.6322" lon="6.67418">
        <ele>1922.64</ele>
        <time>2016-02-06T12:30:06.000Z</time>
      </trkpt>
      <trkpt lat="45.63198" lon="6.67444">
        <ele>1911</ele>
        <time>2016-02-06T12:30:50.000Z</time>
      </trkpt>
      <trkpt lat="45.63177" lon="6.67461">
        <ele>1912.5</ele>
        <time>2016-02-06T12:30:54.000Z</time>
      </trkpt>
      <trkpt lat="45.63157" lon="6.67469">
        <ele>1909.19</ele>
        <time>2016-02-06T12:31:00.000Z</time>
      </trkpt>
      <trkpt lat="45.63136" lon="6.67482">
        <ele>1907.05</ele>
        <time>2016-02-06T12:31:04.000Z</time>
      </trkpt>
      <trkpt lat="45.63118" lon="6.67493">
        <ele>1906.51</ele>
        <time>2016-02-06T12:31:08.000Z</time>
      </trkpt>
      <trkpt lat="45.63102" lon="6.67509">
        <ele>1907.63</ele>
        <time>2016-02-06T12:31:12.000Z</time>
      </trkpt>
      <trkpt lat="45.63083" lon="6.67531">
        <ele>1908.41</ele>
        <time>2016-02-06T12:31:16.000Z</time>
      </trkpt>
      <trkpt lat="45.63063" lon="6.67549">
        <ele>1909.6</ele>
        <time>2016-02-06T12:31:20.000Z</time>
      </trkpt>
      <trkpt lat="45.63044" lon="6.67566">
        <ele>1907.4</ele>
        <time>2016-02-06T12:31:24.000Z</time>
      </trkpt>
      <trkpt lat="45.63021" lon="6.67583">
        <ele>1906.1</ele>
        <time>2016-02-06T12:31:28.000Z</time>
      </trkpt>
      <trkpt lat="45.62997" lon="6.67599">
        <ele>1904.03</ele>
        <time>2016-02-06T12:31:32.000Z</time>
      </trkpt>
      <trkpt lat="45.62974" lon="6.67596">
        <ele>1896.13</ele>
        <time>2016-02-06T12:31:38.000Z</time>
      </trkpt>
      <trkpt lat="45.62956" lon="6.67609">
        <ele>1890.78</ele>
        <time>2016-02-06T12:31:42.000Z</time>
      </trkpt>
      <trkpt lat="45.62938" lon="6.67615">
        <ele>1888.95</ele>
        <time>2016-02-06T12:31:46.000Z</time>
      </trkpt>
      <trkpt lat="45.62917" lon="6.67621">
        <ele>1887.74</ele>
        <time>2016-02-06T12:31:50.000Z</time>
      </trkpt>
      <trkpt lat="45.62898" lon="6.67622">
        <ele>1884.93</ele>
        <time>2016-02-06T12:31:54.000Z</time>
      </trkpt>
      <trkpt lat="45.62873" lon="6.67631">
        <ele>1876.37</ele>
        <time>2016-02-06T12:32:00.000Z</time>
      </trkpt>
      <trkpt lat="45.62856" lon="6.67651">
        <ele>1867.67</ele>
        <time>2016-02-06T12:32:06.000Z</time>
      </trkpt>
      <trkpt lat="45.62837" lon="6.67669">
        <ele>1861.83</ele>
        <time>2016-02-06T12:32:12.000Z</time>
      </trkpt>
      <trkpt lat="45.62821" lon="6.67686">
        <ele>1858.46</ele>
        <time>2016-02-06T12:32:16.000Z</time>
      </trkpt>
      <trkpt lat="45.62797" lon="6.67703">
        <ele>1856.43</ele>
        <time>2016-02-06T12:32:22.000Z</time>
      </trkpt>
      <trkpt lat="45.62777" lon="6.67721">
        <ele>1856.18</ele>
        <time>2016-02-06T12:32:28.000Z</time>
      </trkpt>
      <trkpt lat="45.62748" lon="6.67737">
        <ele>1853.9</ele>
        <time>2016-02-06T12:32:34.000Z</time>
      </trkpt>
      <trkpt lat="45.62726" lon="6.67755">
        <ele>1852.22</ele>
        <time>2016-02-06T12:32:38.000Z</time>
      </trkpt>
      <trkpt lat="45.62704" lon="6.6777">
        <ele>1849.81</ele>
        <time>2016-02-06T12:32:42.000Z</time>
      </trkpt>
      <trkpt lat="45.62704" lon="6.6777">
        <ele>1849.81</ele>
        <time>2016-02-06T12:32:42.000Z</time>
      </trkpt>
      <trkpt lat="45.62722" lon="6.67767">
        <ele>1815.51</ele>
        <time>2016-02-06T12:33:54.000Z</time>
      </trkpt>
      <trkpt lat="45.62722" lon="6.67767">
        <ele>1815.51</ele>
        <time>2016-02-06T12:33:54.000Z</time>
      </trkpt>
      <trkpt lat="45.6272" lon="6.67767">
        <ele>1809.63</ele>
        <time>2016-02-06T12:37:54.000Z</time>
      </trkpt>
      <trkpt lat="45.62697" lon="6.67779">
        <ele>1806.73</ele>
        <time>2016-02-06T12:38:36.000Z</time>
      </trkpt>
      <trkpt lat="45.6268" lon="6.67789">
        <ele>1805.36</ele>
        <time>2016-02-06T12:38:38.000Z</time>
      </trkpt>
      <trkpt lat="45.62656" lon="6.67801">
        <ele>1804.34</ele>
        <time>2016-02-06T12:38:42.000Z</time>
      </trkpt>
      <trkpt lat="45.62632" lon="6.67811">
        <ele>1803.84</ele>
        <time>2016-02-06T12:38:46.000Z</time>
      </trkpt>
      <trkpt lat="45.62603" lon="6.67823">
        <ele>1802.46</ele>
        <time>2016-02-06T12:38:50.000Z</time>
      </trkpt>
      <trkpt lat="45.62583" lon="6.67842">
        <ele>1802.61</ele>
        <time>2016-02-06T12:38:54.000Z</time>
      </trkpt>
      <trkpt lat="45.62559" lon="6.67842">
        <ele>1799.58</ele>
        <time>2016-02-06T12:39:00.000Z</time>
      </trkpt>
      <trkpt lat="45.62538" lon="6.67853">
        <ele>1797.39</ele>
        <time>2016-02-06T12:39:04.000Z</time>
      </trkpt>
      <trkpt lat="45.62516" lon="6.6787">
        <ele>1794.42</ele>
        <time>2016-02-06T12:39:10.000Z</time>
      </trkpt>
      <trkpt lat="45.62499" lon="6.67881">
        <ele>1791.36</ele>
        <time>2016-02-06T12:39:14.000Z</time>
      </trkpt>
      <trkpt lat="45.62474" lon="6.67889">
        <ele>1789.59</ele>
        <time>2016-02-06T12:39:18.000Z</time>
      </trkpt>
      <trkpt lat="45.62454" lon="6.67867">
        <ele>1787.65</ele>
        <time>2016-02-06T12:39:22.000Z</time>
      </trkpt>
      <trkpt lat="45.62427" lon="6.67863">
        <ele>1784.16</ele>
        <time>2016-02-06T12:39:26.000Z</time>
      </trkpt>
      <trkpt lat="45.62407" lon="6.67873">
        <ele>1782.13</ele>
        <time>2016-02-06T12:39:38.000Z</time>
      </trkpt>
      <trkpt lat="45.62391" lon="6.6785">
        <ele>1779.28</ele>
        <time>2016-02-06T12:39:42.000Z</time>
      </trkpt>
      <trkpt lat="45.62362" lon="6.67831">
        <ele>1774.82</ele>
        <time>2016-02-06T12:39:46.000Z</time>
      </trkpt>
      <trkpt lat="45.62339" lon="6.67842">
        <ele>1771.96</ele>
        <time>2016-02-06T12:39:50.000Z</time>
      </trkpt>
      <trkpt lat="45.6231" lon="6.67836">
        <ele>1767.74</ele>
        <time>2016-02-06T12:39:54.000Z</time>
      </trkpt>
      <trkpt lat="45.62278" lon="6.67839">
        <ele>1762.43</ele>
        <time>2016-02-06T12:39:58.000Z</time>
      </trkpt>
      <trkpt lat="45.6225" lon="6.67841">
        <ele>1757.61</ele>
        <time>2016-02-06T12:40:02.000Z</time>
      </trkpt>
      <trkpt lat="45.62215" lon="6.67844">
        <ele>1753.9</ele>
        <time>2016-02-06T12:40:06.000Z</time>
      </trkpt>
      <trkpt lat="45.62183" lon="6.6785">
        <ele>1751.98</ele>
        <time>2016-02-06T12:40:10.000Z</time>
      </trkpt>
      <trkpt lat="45.62163" lon="6.67851">
        <ele>1750.99</ele>
        <time>2016-02-06T12:40:12.000Z</time>
      </trkpt>
      <trkpt lat="45.62137" lon="6.67856">
        <ele>1746</ele>
        <time>2016-02-06T12:40:16.000Z</time>
      </trkpt>
      <trkpt lat="45.62107" lon="6.67852">
        <ele>1741</ele>
        <time>2016-02-06T12:40:20.000Z</time>
      </trkpt>
      <trkpt lat="45.62079" lon="6.67855">
        <ele>1737</ele>
        <time>2016-02-06T12:40:24.000Z</time>
      </trkpt>
      <trkpt lat="45.62056" lon="6.67852">
        <ele>1728.75</ele>
        <time>2016-02-06T12:40:28.000Z</time>
      </trkpt>
      <trkpt lat="45.62026" lon="6.67846">
        <ele>1722.69</ele>
        <time>2016-02-06T12:40:32.000Z</time>
      </trkpt>
      <trkpt lat="45.61995" lon="6.67844">
        <ele>1717.17</ele>
        <time>2016-02-06T12:40:36.000Z</time>
      </trkpt>
      <trkpt lat="45.61967" lon="6.67846">
        <ele>1712.79</ele>
        <time>2016-02-06T12:40:40.000Z</time>
      </trkpt>
      <trkpt lat="45.61941" lon="6.67848">
        <ele>1707.45</ele>
        <time>2016-02-06T12:40:44.000Z</time>
      </trkpt>
      <trkpt lat="45.61911" lon="6.67853">
        <ele>1702.36</ele>
        <time>2016-02-06T12:40:48.000Z</time>
      </trkpt>
      <trkpt lat="45.6188" lon="6.67853">
        <ele>1699.84</ele>
        <time>2016-02-06T12:40:52.000Z</time>
      </trkpt>
      <trkpt lat="45.61863" lon="6.67855">
        <ele>1690.96</ele>
        <time>2016-02-06T12:40:56.000Z</time>
      </trkpt>
      <trkpt lat="45.61835" lon="6.6785">
        <ele>1679.99</ele>
        <time>2016-02-06T12:41:00.000Z</time>
      </trkpt>
      <trkpt lat="45.61807" lon="6.67842">
        <ele>1674</ele>
        <time>2016-02-06T12:41:04.000Z</time>
      </trkpt>
      <trkpt lat="45.61778" lon="6.67828">
        <ele>1671.75</ele>
        <time>2016-02-06T12:41:08.000Z</time>
      </trkpt>
      <trkpt lat="45.61778" lon="6.67828">
        <ele>1671.75</ele>
        <time>2016-02-06T12:41:08.000Z</time>
      </trkpt>
      <trkpt lat="45.61774" lon="6.67812">
        <ele>1673.81</ele>
        <time>2016-02-06T12:41:54.000Z</time>
      </trkpt>
      <trkpt lat="45.61756" lon="6.67788">
        <ele>1667.32</ele>
        <time>2016-02-06T12:44:58.000Z</time>
      </trkpt>
      <trkpt lat="45.61731" lon="6.67774">
        <ele>1664.93</ele>
        <time>2016-02-06T12:45:12.000Z</time>
      </trkpt>
      <trkpt lat="45.6171" lon="6.67772">
        <ele>1663.48</ele>
        <time>2016-02-06T12:45:16.000Z</time>
      </trkpt>
      <trkpt lat="45.6169" lon="6.67772">
        <ele>1662.37</ele>
        <time>2016-02-06T12:45:20.000Z</time>
      </trkpt>
      <trkpt lat="45.61667" lon="6.67777">
        <ele>1662.17</ele>
        <time>2016-02-06T12:45:26.000Z</time>
      </trkpt>
      <trkpt lat="45.61638" lon="6.67777">
        <ele>1662.4</ele>
        <time>2016-02-06T12:45:32.000Z</time>
      </trkpt>
      <trkpt lat="45.61616" lon="6.67779">
        <ele>1661.05</ele>
        <time>2016-02-06T12:45:38.000Z</time>
      </trkpt>
      <trkpt lat="45.61598" lon="6.67777">
        <ele>1658.51</ele>
        <time>2016-02-06T12:45:42.000Z</time>
      </trkpt>
      <trkpt lat="45.61574" lon="6.67775">
        <ele>1657.38</ele>
        <time>2016-02-06T12:45:46.000Z</time>
      </trkpt>
      <trkpt lat="45.61548" lon="6.67775">
        <ele>1655.84</ele>
        <time>2016-02-06T12:45:50.000Z</time>
      </trkpt>
      <trkpt lat="45.61548" lon="6.67775">
        <ele>1655.84</ele>
        <time>2016-02-06T12:45:50.000Z</time>
      </trkpt>
      <trkpt lat="45.61523" lon="6.67773">
        <ele>1655.46</ele>
        <time>2016-02-06T12:45:54.000Z</time>
      </trkpt>
      <trkpt lat="45.61497" lon="6.67774">
        <ele>1651.12</ele>
        <time>2016-02-06T12:45:58.000Z</time>
      </trkpt>
      <trkpt lat="45.61472" lon="6.67777">
        <ele>1647.28</ele>
        <time>2016-02-06T12:46:02.000Z</time>
      </trkpt>
      <trkpt lat="45.61446" lon="6.67777">
        <ele>1644.57</ele>
        <time>2016-02-06T12:46:06.000Z</time>
      </trkpt>
      <trkpt lat="45.61421" lon="6.67776">
        <ele>1642.89</ele>
        <time>2016-02-06T12:46:10.000Z</time>
      </trkpt>
      <trkpt lat="45.61395" lon="6.67776">
        <ele>1642.22</ele>
        <time>2016-02-06T12:46:14.000Z</time>
      </trkpt>
      <trkpt lat="45.61374" lon="6.67775">
        <ele>1641.81</ele>
        <time>2016-02-06T12:46:18.000Z</time>
      </trkpt>
      <trkpt lat="45.6135" lon="6.67762">
        <ele>1640.7</ele>
        <time>2016-02-06T12:46:22.000Z</time>
      </trkpt>
      <trkpt lat="45.61332" lon="6.67758">
        <ele>1640.18</ele>
        <time>2016-02-06T12:46:26.000Z</time>
      </trkpt>
      <trkpt lat="45.61312" lon="6.67763">
        <ele>1638.29</ele>
        <time>2016-02-06T12:46:30.000Z</time>
      </trkpt>
      <trkpt lat="45.61293" lon="6.67759">
        <ele>1635.32</ele>
        <time>2016-02-06T12:46:34.000Z</time>
      </trkpt>
      <trkpt lat="45.61272" lon="6.6775">
        <ele>1633.58</ele>
        <time>2016-02-06T12:46:38.000Z</time>
      </trkpt>
      <trkpt lat="45.61246" lon="6.6775">
        <ele>1632.82</ele>
        <time>2016-02-06T12:46:44.000Z</time>
      </trkpt>
      <trkpt lat="45.61221" lon="6.67751">
        <ele>1632.1</ele>
        <time>2016-02-06T12:46:50.000Z</time>
      </trkpt>
      <trkpt lat="45.612" lon="6.67748">
        <ele>1631.14</ele>
        <time>2016-02-06T12:46:56.000Z</time>
      </trkpt>
      <trkpt lat="45.61179" lon="6.67745">
        <ele>1599.64</ele>
        <time>2016-02-06T12:47:02.000Z</time>
      </trkpt>
      <trkpt lat="45.61159" lon="6.67739">
        <ele>1619.23</ele>
        <time>2016-02-06T12:47:10.000Z</time>
      </trkpt>
      <trkpt lat="45.61139" lon="6.6773">
        <ele>1627.99</ele>
        <time>2016-02-06T12:47:22.000Z</time>
      </trkpt>
      <trkpt lat="45.61119" lon="6.67717">
        <ele>1631.16</ele>
        <time>2016-02-06T12:47:32.000Z</time>
      </trkpt>
      <trkpt lat="45.61101" lon="6.67706">
        <ele>1633.26</ele>
        <time>2016-02-06T12:47:40.000Z</time>
      </trkpt>
      <trkpt lat="45.61082" lon="6.67698">
        <ele>1632.79</ele>
        <time>2016-02-06T12:47:50.000Z</time>
      </trkpt>
      <trkpt lat="45.61061" lon="6.67691">
        <ele>1631.11</ele>
        <time>2016-02-06T12:47:58.000Z</time>
      </trkpt>
      <trkpt lat="45.61044" lon="6.67687">
        <ele>1631.07</ele>
        <time>2016-02-06T12:48:06.000Z</time>
      </trkpt>
      <trkpt lat="45.61026" lon="6.67678">
        <ele>1628.36</ele>
        <time>2016-02-06T12:48:18.000Z</time>
      </trkpt>
      <trkpt lat="45.61012" lon="6.67663">
        <ele>1623.63</ele>
        <time>2016-02-06T12:48:47.000Z</time>
      </trkpt>
      <trkpt lat="45.60999" lon="6.67642">
        <ele>1632.4</ele>
        <time>2016-02-06T12:49:01.000Z</time>
      </trkpt>
      <trkpt lat="45.60983" lon="6.67625">
        <ele>1621.75</ele>
        <time>2016-02-06T12:49:15.000Z</time>
      </trkpt>
      <trkpt lat="45.60969" lon="6.67605">
        <ele>1621.05</ele>
        <time>2016-02-06T12:49:31.000Z</time>
      </trkpt>
      <trkpt lat="45.60955" lon="6.67588">
        <ele>1621.12</ele>
        <time>2016-02-06T12:49:47.000Z</time>
      </trkpt>
      <trkpt lat="45.60955" lon="6.67588">
        <ele>1621.12</ele>
        <time>2016-02-06T12:49:47.000Z</time>
      </trkpt>
      <trkpt lat="45.60947" lon="6.67582">
        <ele>1621.52</ele>
        <time>2016-02-06T12:49:53.000Z</time>
      </trkpt>
      <trkpt lat="45.60929" lon="6.67572">
        <ele>1623.04</ele>
        <time>2016-02-06T12:50:09.000Z</time>
      </trkpt>
      <trkpt lat="45.60912" lon="6.6756">
        <ele>1622.95</ele>
        <time>2016-02-06T12:50:23.000Z</time>
      </trkpt>
      <trkpt lat="45.60894" lon="6.67549">
        <ele>1622.03</ele>
        <time>2016-02-06T12:50:39.000Z</time>
      </trkpt>
      <trkpt lat="45.60876" lon="6.67541">
        <ele>1622.49</ele>
        <time>2016-02-06T12:50:57.000Z</time>
      </trkpt>
      <trkpt lat="45.60857" lon="6.67529">
        <ele>1622.02</ele>
        <time>2016-02-06T12:51:09.000Z</time>
      </trkpt>
      <trkpt lat="45.6084" lon="6.67521">
        <ele>1623.7</ele>
        <time>2016-02-06T12:51:27.000Z</time>
      </trkpt>
      <trkpt lat="45.60821" lon="6.67511">
        <ele>1623.07</ele>
        <time>2016-02-06T12:51:41.000Z</time>
      </trkpt>
      <trkpt lat="45.60803" lon="6.67507">
        <ele>1624.74</ele>
        <time>2016-02-06T12:51:55.000Z</time>
      </trkpt>
      <trkpt lat="45.60784" lon="6.67504">
        <ele>1625.12</ele>
        <time>2016-02-06T12:52:09.000Z</time>
      </trkpt>
      <trkpt lat="45.60764" lon="6.67502">
        <ele>1624.75</ele>
        <time>2016-02-06T12:52:23.000Z</time>
      </trkpt>
      <trkpt lat="45.60746" lon="6.67493">
        <ele>1622.9</ele>
        <time>2016-02-06T12:52:33.000Z</time>
      </trkpt>
      <trkpt lat="45.60726" lon="6.6748">
        <ele>1623</ele>
        <time>2016-02-06T12:52:43.000Z</time>
      </trkpt>
      <trkpt lat="45.60712" lon="6.6746">
        <ele>1620.87</ele>
        <time>2016-02-06T12:52:49.000Z</time>
      </trkpt>
      <trkpt lat="45.60695" lon="6.67439">
        <ele>1618.73</ele>
        <time>2016-02-06T12:52:55.000Z</time>
      </trkpt>
      <trkpt lat="45.60675" lon="6.6742">
        <ele>1617.34</ele>
        <time>2016-02-06T12:53:01.000Z</time>
      </trkpt>
      <trkpt lat="45.60658" lon="6.67404">
        <ele>1616.34</ele>
        <time>2016-02-06T12:53:05.000Z</time>
      </trkpt>
      <trkpt lat="45.60641" lon="6.67393">
        <ele>1614.83</ele>
        <time>2016-02-06T12:53:09.000Z</time>
      </trkpt>
      <trkpt lat="45.60622" lon="6.6739">
        <ele>1613.71</ele>
        <time>2016-02-06T12:53:13.000Z</time>
      </trkpt>
      <trkpt lat="45.60598" lon="6.67394">
        <ele>1610.96</ele>
        <time>2016-02-06T12:53:19.000Z</time>
      </trkpt>
      <trkpt lat="45.60598" lon="6.67394">
        <ele>1610.96</ele>
        <time>2016-02-06T12:53:19.000Z</time>
      </trkpt>
      <trkpt lat="45.60596" lon="6.67393">
        <ele>1611</ele>
        <time>2016-02-06T12:53:53.000Z</time>
      </trkpt>
      <trkpt lat="45.60567" lon="6.67391">
        <ele>1614.62</ele>
        <time>2016-02-06T12:56:19.000Z</time>
      </trkpt>
      <trkpt lat="45.60548" lon="6.6738">
        <ele>1613.16</ele>
        <time>2016-02-06T12:56:23.000Z</time>
      </trkpt>
      <trkpt lat="45.6053" lon="6.67364">
        <ele>1611.54</ele>
        <time>2016-02-06T12:56:27.000Z</time>
      </trkpt>
      <trkpt lat="45.60508" lon="6.67344">
        <ele>1610.63</ele>
        <time>2016-02-06T12:56:31.000Z</time>
      </trkpt>
      <trkpt lat="45.60489" lon="6.67322">
        <ele>1609.66</ele>
        <time>2016-02-06T12:56:35.000Z</time>
      </trkpt>
      <trkpt lat="45.60468" lon="6.67298">
        <ele>1609.16</ele>
        <time>2016-02-06T12:56:39.000Z</time>
      </trkpt>
      <trkpt lat="45.60444" lon="6.67287">
        <ele>1608.29</ele>
        <time>2016-02-06T12:56:43.000Z</time>
      </trkpt>
      <trkpt lat="45.60418" lon="6.67285">
        <ele>1606.82</ele>
        <time>2016-02-06T12:56:47.000Z</time>
      </trkpt>
      <trkpt lat="45.60394" lon="6.67282">
        <ele>1604.21</ele>
        <time>2016-02-06T12:56:51.000Z</time>
      </trkpt>
      <trkpt lat="45.60369" lon="6.67273">
        <ele>1600.8</ele>
        <time>2016-02-06T12:56:55.000Z</time>
      </trkpt>
      <trkpt lat="45.60344" lon="6.67263">
        <ele>1597.95</ele>
        <time>2016-02-06T12:56:59.000Z</time>
      </trkpt>
      <trkpt lat="45.60319" lon="6.6725">
        <ele>1595.99</ele>
        <time>2016-02-06T12:57:03.000Z</time>
      </trkpt>
      <trkpt lat="45.60296" lon="6.67231">
        <ele>1596.25</ele>
        <time>2016-02-06T12:57:07.000Z</time>
      </trkpt>
      <trkpt lat="45.60276" lon="6.67206">
        <ele>1596.31</ele>
        <time>2016-02-06T12:57:11.000Z</time>
      </trkpt>
      <trkpt lat="45.6026" lon="6.6718">
        <ele>1595.33</ele>
        <time>2016-02-06T12:57:15.000Z</time>
      </trkpt>
      <trkpt lat="45.60245" lon="6.67161">
        <ele>1593.29</ele>
        <time>2016-02-06T12:57:21.000Z</time>
      </trkpt>
      <trkpt lat="45.60225" lon="6.67144">
        <ele>1588.08</ele>
        <time>2016-02-06T12:57:37.000Z</time>
      </trkpt>
      <trkpt lat="45.602" lon="6.67134">
        <ele>1582.76</ele>
        <time>2016-02-06T12:57:43.000Z</time>
      </trkpt>
      <trkpt lat="45.6018" lon="6.67122">
        <ele>1578.69</ele>
        <time>2016-02-06T12:57:47.000Z</time>
      </trkpt>
      <trkpt lat="45.60163" lon="6.67115">
        <ele>1573.67</ele>
        <time>2016-02-06T12:57:51.000Z</time>
      </trkpt>
      <trkpt lat="45.60163" lon="6.67115">
        <ele>1573.67</ele>
        <time>2016-02-06T12:57:51.000Z</time>
      </trkpt>
      <trkpt lat="45.60158" lon="6.67123">
        <ele>1571.34</ele>
        <time>2016-02-06T12:57:53.000Z</time>
      </trkpt>
      <trkpt lat="45.60136" lon="6.67116">
        <ele>1567.04</ele>
        <time>2016-02-06T12:57:59.000Z</time>
      </trkpt>
      <trkpt lat="45.60115" lon="6.67135">
        <ele>1561.38</ele>
        <time>2016-02-06T12:58:05.000Z</time>
      </trkpt>
      <trkpt lat="45.60092" lon="6.67119">
        <ele>1556.67</ele>
        <time>2016-02-06T12:58:11.000Z</time>
      </trkpt>
      <trkpt lat="45.60077" lon="6.67135">
        <ele>1552.21</ele>
        <time>2016-02-06T12:58:17.000Z</time>
      </trkpt>
      <trkpt lat="45.60061" lon="6.67153">
        <ele>1548.03</ele>
        <time>2016-02-06T12:58:23.000Z</time>
      </trkpt>
      <trkpt lat="45.60057" lon="6.67124">
        <ele>1516.46</ele>
        <time>2016-02-06T13:00:01.000Z</time>
      </trkpt>
      <trkpt lat="45.60053" lon="6.67096">
        <ele>1512.56</ele>
        <time>2016-02-06T13:00:07.000Z</time>
      </trkpt>
      <trkpt lat="45.60045" lon="6.67067">
        <ele>1510.14</ele>
        <time>2016-02-06T13:00:11.000Z</time>
      </trkpt>
      <trkpt lat="45.6003" lon="6.67042">
        <ele>1508.03</ele>
        <time>2016-02-06T13:00:15.000Z</time>
      </trkpt>
      <trkpt lat="45.60012" lon="6.67031">
        <ele>1505.26</ele>
        <time>2016-02-06T13:00:19.000Z</time>
      </trkpt>
      <trkpt lat="45.5999" lon="6.67031">
        <ele>1504.81</ele>
        <time>2016-02-06T13:00:23.000Z</time>
      </trkpt>
      <trkpt lat="45.59968" lon="6.67029">
        <ele>1504.45</ele>
        <time>2016-02-06T13:00:27.000Z</time>
      </trkpt>
      <trkpt lat="45.59945" lon="6.67028">
        <ele>1503.36</ele>
        <time>2016-02-06T13:00:31.000Z</time>
      </trkpt>
      <trkpt lat="45.59924" lon="6.67009">
        <ele>1497.59</ele>
        <time>2016-02-06T13:00:35.000Z</time>
      </trkpt>
      <trkpt lat="45.59906" lon="6.66994">
        <ele>1492.2</ele>
        <time>2016-02-06T13:00:41.000Z</time>
      </trkpt>
      <trkpt lat="45.59891" lon="6.66973">
        <ele>1485.3</ele>
        <time>2016-02-06T13:01:05.000Z</time>
      </trkpt>
      <trkpt lat="45.59875" lon="6.66953">
        <ele>1482.91</ele>
        <time>2016-02-06T13:01:11.000Z</time>
      </trkpt>
      <trkpt lat="45.59851" lon="6.66946">
        <ele>1482.11</ele>
        <time>2016-02-06T13:01:17.000Z</time>
      </trkpt>
      <trkpt lat="45.59833" lon="6.66949">
        <ele>1480.28</ele>
        <time>2016-02-06T13:01:21.000Z</time>
      </trkpt>
      <trkpt lat="45.59806" lon="6.66952">
        <ele>1477.53</ele>
        <time>2016-02-06T13:01:27.000Z</time>
      </trkpt>
      <trkpt lat="45.59781" lon="6.66955">
        <ele>1475.44</ele>
        <time>2016-02-06T13:01:33.000Z</time>
      </trkpt>
      <trkpt lat="45.5976" lon="6.66953">
        <ele>1473.43</ele>
        <time>2016-02-06T13:01:39.000Z</time>
      </trkpt>
      <trkpt lat="45.59742" lon="6.66942">
        <ele>1472.86</ele>
        <time>2016-02-06T13:01:43.000Z</time>
      </trkpt>
      <trkpt lat="45.59734" lon="6.66918">
        <ele>1471.46</ele>
        <time>2016-02-06T13:01:47.000Z</time>
      </trkpt>
      <trkpt lat="45.59734" lon="6.66918">
        <ele>1471.46</ele>
        <time>2016-02-06T13:01:47.000Z</time>
      </trkpt>
      <trkpt lat="45.59731" lon="6.66882">
        <ele>1468.81</ele>
        <time>2016-02-06T13:01:53.000Z</time>
      </trkpt>
      <trkpt lat="45.59732" lon="6.66854">
        <ele>1467.2</ele>
        <time>2016-02-06T13:01:57.000Z</time>
      </trkpt>
      <trkpt lat="45.59731" lon="6.66827">
        <ele>1467.55</ele>
        <time>2016-02-06T13:02:01.000Z</time>
      </trkpt>
      <trkpt lat="45.59719" lon="6.66798">
        <ele>1468.44</ele>
        <time>2016-02-06T13:02:07.000Z</time>
      </trkpt>
      <trkpt lat="45.59692" lon="6.66781">
        <ele>1466.06</ele>
        <time>2016-02-06T13:02:13.000Z</time>
      </trkpt>
      <trkpt lat="45.5966" lon="6.6677">
        <ele>1465.51</ele>
        <time>2016-02-06T13:02:19.000Z</time>
      </trkpt>
      <trkpt lat="45.59632" lon="6.6677">
        <ele>1463.13</ele>
        <time>2016-02-06T13:02:23.000Z</time>
      </trkpt>
      <trkpt lat="45.59609" lon="6.66779">
        <ele>1459.78</ele>
        <time>2016-02-06T13:02:27.000Z</time>
      </trkpt>
      <trkpt lat="45.59595" lon="6.66795">
        <ele>1455.7</ele>
        <time>2016-02-06T13:02:31.000Z</time>
      </trkpt>
      <trkpt lat="45.59611" lon="6.66809">
        <ele>1450.92</ele>
        <time>2016-02-06T13:02:35.000Z</time>
      </trkpt>
      <trkpt lat="45.59629" lon="6.66827">
        <ele>1450.23</ele>
        <time>2016-02-06T13:02:39.000Z</time>
      </trkpt>
      <trkpt lat="45.59639" lon="6.66849">
        <ele>1448.81</ele>
        <time>2016-02-06T13:02:43.000Z</time>
      </trkpt>
      <trkpt lat="45.59639" lon="6.66882">
        <ele>1445.45</ele>
        <time>2016-02-06T13:02:47.000Z</time>
      </trkpt>
      <trkpt lat="45.59637" lon="6.66916">
        <ele>1442.36</ele>
        <time>2016-02-06T13:02:51.000Z</time>
      </trkpt>
      <trkpt lat="45.59634" lon="6.6695">
        <ele>1438.34</ele>
        <time>2016-02-06T13:02:55.000Z</time>
      </trkpt>
      <trkpt lat="45.59644" lon="6.6698">
        <ele>1436.84</ele>
        <time>2016-02-06T13:02:59.000Z</time>
      </trkpt>
      <trkpt lat="45.59641" lon="6.67014">
        <ele>1434.71</ele>
        <time>2016-02-06T13:03:03.000Z</time>
      </trkpt>
      <trkpt lat="45.5962" lon="6.67016">
        <ele>1432.68</ele>
        <time>2016-02-06T13:03:07.000Z</time>
      </trkpt>
      <trkpt lat="45.59595" lon="6.67003">
        <ele>1430.71</ele>
        <time>2016-02-06T13:03:13.000Z</time>
      </trkpt>
      <trkpt lat="45.5957" lon="6.67005">
        <ele>1426.84</ele>
        <time>2016-02-06T13:03:19.000Z</time>
      </trkpt>
      <trkpt lat="45.59548" lon="6.67005">
        <ele>1425.35</ele>
        <time>2016-02-06T13:03:25.000Z</time>
      </trkpt>
      <trkpt lat="45.59527" lon="6.67">
        <ele>1423.79</ele>
        <time>2016-02-06T13:03:31.000Z</time>
      </trkpt>
      <trkpt lat="45.59507" lon="6.66999">
        <ele>1421.47</ele>
        <time>2016-02-06T13:03:37.000Z</time>
      </trkpt>
      <trkpt lat="45.59489" lon="6.67007">
        <ele>1420.18</ele>
        <time>2016-02-06T13:03:43.000Z</time>
      </trkpt>
      <trkpt lat="45.59475" lon="6.67024">
        <ele>1419.9</ele>
        <time>2016-02-06T13:03:49.000Z</time>
      </trkpt>
      <trkpt lat="45.59459" lon="6.67042">
        <ele>1421.61</ele>
        <time>2016-02-06T13:03:55.000Z</time>
      </trkpt>
      <trkpt lat="45.5944" lon="6.67047">
        <ele>1419.83</ele>
        <time>2016-02-06T13:04:01.000Z</time>
      </trkpt>
      <trkpt lat="45.59423" lon="6.67055">
        <ele>1416.35</ele>
        <time>2016-02-06T13:04:07.000Z</time>
      </trkpt>
      <trkpt lat="45.59406" lon="6.67068">
        <ele>1415.29</ele>
        <time>2016-02-06T13:04:13.000Z</time>
      </trkpt>
      <trkpt lat="45.59389" lon="6.67081">
        <ele>1413.16</ele>
        <time>2016-02-06T13:04:19.000Z</time>
      </trkpt>
      <trkpt lat="45.59371" lon="6.67088">
        <ele>1412.95</ele>
        <time>2016-02-06T13:04:27.000Z</time>
      </trkpt>
      <trkpt lat="45.5935" lon="6.67086">
        <ele>1409.5</ele>
        <time>2016-02-06T13:04:39.000Z</time>
      </trkpt>
      <trkpt lat="45.59331" lon="6.67081">
        <ele>1407.83</ele>
        <time>2016-02-06T13:04:49.000Z</time>
      </trkpt>
      <trkpt lat="45.59313" lon="6.67082">
        <ele>1409.34</ele>
        <time>2016-02-06T13:04:59.000Z</time>
      </trkpt>
      <trkpt lat="45.59313" lon="6.67082">
        <ele>1409.34</ele>
        <time>2016-02-06T13:04:59.000Z</time>
      </trkpt>
      <trkpt lat="45.5931" lon="6.67081">
        <ele>1409.97</ele>
        <time>2016-02-06T13:05:53.000Z</time>
      </trkpt>
      <trkpt lat="45.5929" lon="6.67081">
        <ele>1410.54</ele>
        <time>2016-02-06T13:06:27.000Z</time>
      </trkpt>
      <trkpt lat="45.5927" lon="6.67084">
        <ele>1410.58</ele>
        <time>2016-02-06T13:06:43.000Z</time>
      </trkpt>
      <trkpt lat="45.59251" lon="6.67084">
        <ele>1411.72</ele>
        <time>2016-02-06T13:06:59.000Z</time>
      </trkpt>
      <trkpt lat="45.59232" lon="6.67084">
        <ele>1412.43</ele>
        <time>2016-02-06T13:07:15.000Z</time>
      </trkpt>
      <trkpt lat="45.59215" lon="6.6709">
        <ele>1405.97</ele>
        <time>2016-02-06T13:07:33.000Z</time>
      </trkpt>
      <trkpt lat="45.59196" lon="6.67097">
        <ele>1403.86</ele>
        <time>2016-02-06T13:07:49.000Z</time>
      </trkpt>
      <trkpt lat="45.59176" lon="6.67099">
        <ele>1406.53</ele>
        <time>2016-02-06T13:08:07.000Z</time>
      </trkpt>
      <trkpt lat="45.59158" lon="6.67099">
        <ele>1407.87</ele>
        <time>2016-02-06T13:08:21.000Z</time>
      </trkpt>
      <trkpt lat="45.59158" lon="6.67099">
        <ele>1407.87</ele>
        <time>2016-02-06T13:08:21.000Z</time>
      </trkpt>
      <trkpt lat="45.59142" lon="6.67099">
        <ele>1407.63</ele>
        <time>2016-02-06T13:09:53.000Z</time>
      </trkpt>
      <trkpt lat="45.59142" lon="6.67099">
        <ele>1407.63</ele>
        <time>2016-02-06T13:09:53.000Z</time>
      </trkpt>
      <trkpt lat="45.59141" lon="6.67093">
        <ele>1404.01</ele>
        <time>2016-02-06T13:13:53.000Z</time>
      </trkpt>
    </trkseg>
  </trk>
</gpx>